Wetterdaten: Mittwoch, 05.06.2019
Datum Zeit Temp. Aussen Temp. o. S. +5cm Feuchte Auss Luftdruck Regen Sonnenschein Regendauer Solar Windben Empfang
05.06.2019 00:00 21,9 C 20,0 C 20,0 C 69 % 1005,8 hPa 0,0 l/m 0 min 0 min 0 W/m 6,4 km/h (2 Bft) 100,00 %
05.06.2019 00:02 21,9 C 20,0 C 20,0 C 69 % 1005,9 hPa 0,0 l/m 0 min 0 min 0 W/m 6,4 km/h (2 Bft) 100,00 %
05.06.2019 00:04 21,9 C 20,0 C 20,0 C 69 % 1005,9 hPa 0,0 l/m 0 min 0 min 0 W/m 9,7 km/h (2 Bft) 100,00 %
05.06.2019 00:07 21,8 C 20,0 C 20,0 C 69 % 1005,8 hPa 0,0 l/m 0 min 0 min 0 W/m 12,9 km/h (3 Bft) 98,63 %
05.06.2019 00:08 21,8 C 20,0 C 20,0 C 69 % 1005,8 hPa 0,0 l/m 0 min 0 min 0 W/m 3,2 km/h (1 Bft) 100,00 %
05.06.2019 00:10 21,7 C 20,0 C 19,4 C 70 % 1005,8 hPa 0,0 l/m 0 min 0 min 0 W/m 6,4 km/h (2 Bft) 100,00 %
05.06.2019 00:12 21,7 C 20,0 C 19,4 C 70 % 1005,8 hPa 0,0 l/m 0 min 0 min 0 W/m 6,4 km/h (2 Bft) 100,00 %
05.06.2019 00:14 21,7 C 20,0 C 19,4 C 70 % 1005,8 hPa 0,0 l/m 0 min 0 min 0 W/m 6,4 km/h (2 Bft) 100,00 %
05.06.2019 00:16 21,6 C 20,0 C 19,4 C 70 % 1005,6 hPa 0,0 l/m 0 min 0 min 0 W/m 3,2 km/h (1 Bft) 100,00 %
05.06.2019 00:18 21,6 C 20,0 C 19,4 C 70 % 1005,6 hPa 0,0 l/m 0 min 0 min 0 W/m 3,2 km/h (1 Bft) 100,00 %
05.06.2019 00:20 21,6 C 20,0 C 19,4 C 70 % 1005,6 hPa 0,0 l/m 0 min 0 min 0 W/m 6,4 km/h (2 Bft) 100,00 %
05.06.2019 00:22 21,5 C 20,0 C 19,4 C 70 % 1005,6 hPa 0,0 l/m 0 min 0 min 0 W/m 6,4 km/h (2 Bft) 100,00 %
05.06.2019 00:24 21,5 C 20,0 C 19,4 C 70 % 1005,5 hPa 0,0 l/m 0 min 0 min 0 W/m 3,2 km/h (1 Bft) 97,83 %
05.06.2019 00:26 21,4 C 20,0 C 19,4 C 71 % 1005,5 hPa 0,0 l/m 0 min 0 min 0 W/m 9,7 km/h (2 Bft) 100,00 %
05.06.2019 00:28 21,4 C 20,0 C 19,4 C 71 % 1005,5 hPa 0,0 l/m 0 min 0 min 0 W/m 9,7 km/h (2 Bft) 100,00 %
05.06.2019 00:30 21,4 C 19,4 C 19,4 C 72 % 1005,5 hPa 0,0 l/m 0 min 0 min 0 W/m 3,2 km/h (1 Bft) 100,00 %
05.06.2019 00:32 21,3 C 19,4 C 18,9 C 72 % 1005,5 hPa 0,0 l/m 0 min 0 min 0 W/m 3,2 km/h (1 Bft) 97,87 %
05.06.2019 00:34 21,3 C 19,4 C 18,9 C 72 % 1005,5 hPa 0,0 l/m 0 min 0 min 0 W/m 0,0 km/h (0 Bft) 97,87 %
05.06.2019 00:36 21,3 C 19,4 C 18,9 C 72 % 1005,6 hPa 0,0 l/m 0 min 0 min 0 W/m 3,2 km/h (1 Bft) 100,00 %
05.06.2019 00:38 21,3 C 19,4 C 18,9 C 72 % 1005,7 hPa 0,0 l/m 0 min 0 min 0 W/m 3,2 km/h (1 Bft) 100,00 %
05.06.2019 00:40 21,2 C 19,4 C 18,9 C 72 % 1005,7 hPa 0,0 l/m 0 min 0 min 0 W/m 3,2 km/h (1 Bft) 100,00 %
05.06.2019 00:42 21,2 C 19,4 C 18,9 C 72 % 1005,7 hPa 0,0 l/m 0 min 0 min 0 W/m 0,0 km/h (0 Bft) 97,87 %
05.06.2019 00:44 21,2 C 19,4 C 18,9 C 72 % 1005,7 hPa 0,0 l/m 0 min 0 min 0 W/m 0,0 km/h (0 Bft) 97,87 %
05.06.2019 00:46 21,2 C 19,4 C 18,9 C 72 % 1005,7 hPa 0,0 l/m 0 min 0 min 0 W/m 0,0 km/h (0 Bft) 97,87 %
05.06.2019 00:48 21,1 C 19,4 C 18,9 C 72 % 1005,7 hPa 0,0 l/m 0 min 0 min 0 W/m 0,0 km/h (0 Bft) 97,83 %
05.06.2019 00:50 21,1 C 19,4 C 18,9 C 73 % 1005,7 hPa 0,0 l/m 0 min 0 min 0 W/m 3,2 km/h (1 Bft) 97,87 %
05.06.2019 00:52 21,1 C 19,4 C 18,9 C 73 % 1005,8 hPa 0,0 l/m 0 min 0 min 0 W/m 3,2 km/h (1 Bft) 97,87 %
05.06.2019 00:54 21,0 C 19,4 C 18,9 C 73 % 1005,8 hPa 0,0 l/m 0 min 0 min 0 W/m 3,2 km/h (1 Bft) 97,87 %
05.06.2019 00:56 21,0 C 19,4 C 18,9 C 73 % 1005,8 hPa 0,0 l/m 0 min 0 min 0 W/m 3,2 km/h (1 Bft) 97,87 %
05.06.2019 00:58 20,9 C 19,4 C 19,4 C 73 % 1005,9 hPa 0,0 l/m 0 min 0 min 0 W/m 6,4 km/h (2 Bft) 95,74 %
05.06.2019 01:00 20,9 C 19,4 C 19,4 C 73 % 1005,9 hPa 0,0 l/m 0 min 0 min 0 W/m 9,7 km/h (2 Bft) 97,83 %
05.06.2019 01:02 20,9 C 19,4 C 19,4 C 73 % 1005,8 hPa 0,0 l/m 0 min 0 min 0 W/m 9,7 km/h (2 Bft) 97,87 %
05.06.2019 01:04 20,8 C 20,0 C 19,4 C 73 % 1005,9 hPa 0,0 l/m 0 min 0 min 0 W/m 9,7 km/h (2 Bft) 97,87 %
05.06.2019 01:06 20,8 C 20,0 C 19,4 C 73 % 1005,9 hPa 0,0 l/m 0 min 0 min 0 W/m 9,7 km/h (2 Bft) 97,87 %
05.06.2019 01:08 20,8 C 20,0 C 19,4 C 73 % 1005,8 hPa 0,0 l/m 0 min 0 min 0 W/m 6,4 km/h (2 Bft) 97,87 %
05.06.2019 01:10 20,8 C 20,0 C 19,4 C 73 % 1005,9 hPa 0,0 l/m 0 min 0 min 0 W/m 6,4 km/h (2 Bft) 95,74 %
05.06.2019 01:12 20,8 C 20,0 C 19,4 C 73 % 1005,9 hPa 0,0 l/m 0 min 0 min 0 W/m 6,4 km/h (2 Bft) 95,65 %
05.06.2019 01:14 20,7 C 20,0 C 19,4 C 73 % 1005,9 hPa 0,0 l/m 0 min 0 min 0 W/m 6,4 km/h (2 Bft) 97,87 %
05.06.2019 01:16 20,7 C 19,4 C 19,4 C 73 % 1006,0 hPa 0,0 l/m 0 min 0 min 0 W/m 6,4 km/h (2 Bft) 97,87 %
05.06.2019 01:18 20,7 C 20,0 C 19,4 C 73 % 1006,1 hPa 0,0 l/m 0 min 0 min 0 W/m 9,7 km/h (2 Bft) 97,87 %
05.06.2019 01:20 20,7 C 20,0 C 19,4 C 73 % 1006,2 hPa 0,0 l/m 0 min 0 min 0 W/m 9,7 km/h (2 Bft) 97,87 %
05.06.2019 01:22 20,7 C 19,4 C 19,4 C 73 % 1006,3 hPa 0,0 l/m 0 min 0 min 0 W/m 12,9 km/h (3 Bft) 97,87 %
05.06.2019 01:24 20,7 C 19,4 C 18,9 C 74 % 1006,3 hPa 0,0 l/m 0 min 0 min 0 W/m 9,7 km/h (2 Bft) 97,83 %
05.06.2019 01:26 20,7 C 18,9 C 18,9 C 75 % 1006,3 hPa 0,0 l/m 0 min 0 min 0 W/m 6,4 km/h (2 Bft) 95,74 %
05.06.2019 01:28 20,7 C 18,9 C 18,9 C 75 % 1006,2 hPa 0,0 l/m 0 min 0 min 0 W/m 9,7 km/h (2 Bft) 95,74 %
05.06.2019 01:30 20,7 C 18,9 C 18,3 C 76 % 1006,2 hPa 0,0 l/m 0 min 0 min 0 W/m 6,4 km/h (2 Bft) 97,87 %
05.06.2019 01:32 20,7 C 18,9 C 18,3 C 76 % 1006,2 hPa 0,0 l/m 0 min 0 min 0 W/m 3,2 km/h (1 Bft) 97,87 %
05.06.2019 01:34 20,7 C 18,9 C 18,3 C 76 % 1006,2 hPa 0,0 l/m 0 min 0 min 0 W/m 3,2 km/h (1 Bft) 100,00 %
05.06.2019 01:36 20,6 C 18,9 C 18,3 C 76 % 1006,2 hPa 0,0 l/m 0 min 0 min 0 W/m 6,4 km/h (2 Bft) 100,00 %
05.06.2019 01:38 20,6 C 18,9 C 18,3 C 76 % 1006,2 hPa 0,0 l/m 0 min 0 min 0 W/m 3,2 km/h (1 Bft) 100,00 %
05.06.2019 01:40 20,6 C 18,9 C 18,3 C 76 % 1006,2 hPa 0,0 l/m 0 min 0 min 0 W/m 3,2 km/h (1 Bft) 100,00 %
05.06.2019 01:42 20,6 C 18,9 C 18,3 C 76 % 1006,2 hPa 0,0 l/m 0 min 0 min 0 W/m 3,2 km/h (1 Bft) 97,87 %
05.06.2019 01:44 20,5 C 18,9 C 18,3 C 76 % 1006,2 hPa 0,0 l/m 0 min 0 min 0 W/m 6,4 km/h (2 Bft) 100,00 %
05.06.2019 01:46 20,4 C 18,9 C 18,3 C 76 % 1006,2 hPa 0,0 l/m 0 min 0 min 0 W/m 6,4 km/h (2 Bft) 97,83 %
05.06.2019 01:48 20,4 C 18,9 C 18,3 C 76 % 1006,3 hPa 0,0 l/m 0 min 0 min 0 W/m 6,4 km/h (2 Bft) 95,74 %
05.06.2019 01:50 20,4 C 18,9 C 18,3 C 76 % 1006,3 hPa 0,0 l/m 0 min 0 min 0 W/m 6,4 km/h (2 Bft) 97,87 %
05.06.2019 01:52 20,3 C 18,9 C 18,3 C 76 % 1006,3 hPa 0,0 l/m 0 min 0 min 0 W/m 6,4 km/h (2 Bft) 97,87 %
05.06.2019 01:54 20,3 C 18,9 C 18,3 C 77 % 1006,3 hPa 0,0 l/m 0 min 0 min 0 W/m 6,4 km/h (2 Bft) 97,87 %
05.06.2019 01:56 20,3 C 18,9 C 18,3 C 77 % 1006,4 hPa 0,0 l/m 0 min 0 min 0 W/m 6,4 km/h (2 Bft) 100,00 %
05.06.2019 01:58 20,2 C 18,9 C 18,3 C 77 % 1006,4 hPa 0,0 l/m 0 min 0 min 0 W/m 3,2 km/h (1 Bft) 97,83 %
05.06.2019 02:00 20,2 C 18,9 C 18,3 C 77 % 1006,4 hPa 0,0 l/m 0 min 0 min 0 W/m 0,0 km/h (0 Bft) 97,87 %
05.06.2019 02:02 20,2 C 18,9 C 18,3 C 77 % 1006,3 hPa 0,0 l/m 0 min 0 min 0 W/m 3,2 km/h (1 Bft) 100,00 %
05.06.2019 02:04 20,1 C 18,3 C 18,3 C 77 % 1006,3 hPa 0,0 l/m 0 min 0 min 0 W/m 6,4 km/h (2 Bft) 97,87 %
05.06.2019 02:06 20,1 C 18,3 C 18,3 C 77 % 1006,4 hPa 0,0 l/m 0 min 0 min 0 W/m 3,2 km/h (1 Bft) 95,74 %
05.06.2019 02:08 20,1 C 18,3 C 17,8 C 77 % 1006,4 hPa 0,0 l/m 0 min 0 min 0 W/m 3,2 km/h (1 Bft) 97,87 %
05.06.2019 02:10 20,1 C 18,3 C 17,8 C 77 % 1006,5 hPa 0,0 l/m 0 min 0 min 0 W/m 3,2 km/h (1 Bft) 97,83 %
05.06.2019 02:12 20,1 C 18,3 C 17,8 C 77 % 1006,4 hPa 0,0 l/m 0 min 0 min 0 W/m 3,2 km/h (1 Bft) 97,87 %
05.06.2019 02:14 20,0 C 18,3 C 17,8 C 78 % 1006,5 hPa 0,0 l/m 0 min 0 min 0 W/m 6,4 km/h (2 Bft) 97,87 %
05.06.2019 02:16 20,0 C 18,3 C 17,8 C 78 % 1006,6 hPa 0,0 l/m 0 min 0 min 0 W/m 6,4 km/h (2 Bft) 95,74 %
05.06.2019 02:18 19,9 C 18,3 C 17,8 C 78 % 1006,6 hPa 0,0 l/m 0 min 0 min 0 W/m 6,4 km/h (2 Bft) 91,49 %
05.06.2019 02:20 19,9 C 18,3 C 17,8 C 78 % 1006,6 hPa 0,0 l/m 0 min 0 min 0 W/m 3,2 km/h (1 Bft) 95,74 %
05.06.2019 02:22 19,9 C 18,3 C 17,8 C 78 % 1006,8 hPa 0,0 l/m 0 min 0 min 0 W/m 9,7 km/h (2 Bft) 93,48 %
05.06.2019 02:24 19,9 C 18,3 C 17,8 C 79 % 1006,8 hPa 0,0 l/m 0 min 0 min 0 W/m 6,4 km/h (2 Bft) 93,62 %
05.06.2019 02:26 19,8 C 17,8 C 17,8 C 79 % 1006,8 hPa 0,0 l/m 0 min 0 min 0 W/m 6,4 km/h (2 Bft) 95,74 %
05.06.2019 02:28 19,8 C 18,3 C 17,8 C 79 % 1006,8 hPa 0,0 l/m 0 min 0 min 0 W/m 9,7 km/h (2 Bft) 97,87 %
05.06.2019 02:30 19,8 C 17,8 C 17,8 C 79 % 1006,8 hPa 0,0 l/m 0 min 0 min 0 W/m 6,4 km/h (2 Bft) 93,62 %
05.06.2019 02:32 19,7 C 17,8 C 17,8 C 80 % 1006,9 hPa 0,0 l/m 0 min 0 min 0 W/m 6,4 km/h (2 Bft) 95,74 %
05.06.2019 02:34 19,7 C 17,8 C 17,8 C 80 % 1007,0 hPa 0,0 l/m 0 min 0 min 0 W/m 6,4 km/h (2 Bft) 97,83 %
05.06.2019 02:36 19,7 C 17,8 C 17,2 C 80 % 1007,0 hPa 0,0 l/m 0 min 0 min 0 W/m 3,2 km/h (1 Bft) 97,87 %
05.06.2019 02:38 19,6 C 17,8 C 17,2 C 80 % 1007,0 hPa 0,0 l/m 0 min 0 min 0 W/m 3,2 km/h (1 Bft) 97,87 %
05.06.2019 02:40 19,6 C 17,8 C 17,2 C 80 % 1007,0 hPa 0,0 l/m 0 min 0 min 0 W/m 0,0 km/h (0 Bft) 97,87 %
05.06.2019 02:42 19,6 C 17,8 C 17,2 C 80 % 1006,9 hPa 0,0 l/m 0 min 0 min 0 W/m 6,4 km/h (2 Bft) 97,87 %
05.06.2019 02:44 19,6 C 17,8 C 17,2 C 80 % 1006,9 hPa 0,0 l/m 0 min 0 min 0 W/m 6,4 km/h (2 Bft) 97,87 %
05.06.2019 02:46 19,5 C 17,8 C 17,2 C 80 % 1007,0 hPa 0,0 l/m 0 min 0 min 0 W/m 3,2 km/h (1 Bft) 97,83 %
05.06.2019 02:48 19,5 C 17,8 C 17,2 C 80 % 1007,0 hPa 0,0 l/m 0 min 0 min 0 W/m 3,2 km/h (1 Bft) 97,87 %
05.06.2019 02:50 19,4 C 17,8 C 17,2 C 80 % 1007,0 hPa 0,0 l/m 0 min 0 min 0 W/m 3,2 km/h (1 Bft) 97,87 %
05.06.2019 02:52 19,4 C 17,8 C 17,2 C 81 % 1007,0 hPa 0,0 l/m 0 min 0 min 0 W/m 3,2 km/h (1 Bft) 97,87 %
05.06.2019 02:54 19,4 C 17,8 C 17,2 C 81 % 1007,1 hPa 0,0 l/m 0 min 0 min 0 W/m 3,2 km/h (1 Bft) 97,87 %
05.06.2019 02:56 19,3 C 17,8 C 17,2 C 81 % 1007,1 hPa 0,0 l/m 0 min 0 min 0 W/m 3,2 km/h (1 Bft) 97,83 %
05.06.2019 02:58 19,3 C 17,8 C 17,2 C 81 % 1007,1 hPa 0,0 l/m 0 min 0 min 0 W/m 6,4 km/h (2 Bft) 97,87 %
05.06.2019 03:00 19,3 C 17,8 C 17,2 C 81 % 1007,0 hPa 0,0 l/m 0 min 0 min 0 W/m 3,2 km/h (1 Bft) 97,87 %
05.06.2019 03:02 19,2 C 17,8 C 17,2 C 81 % 1007,0 hPa 0,0 l/m 0 min 0 min 0 W/m 0,0 km/h (0 Bft) 95,74 %
05.06.2019 03:04 19,2 C 17,8 C 17,2 C 81 % 1007,1 hPa 0,0 l/m 0 min 0 min 0 W/m 0,0 km/h (0 Bft) 97,87 %
05.06.2019 03:06 19,2 C 17,8 C 17,2 C 81 % 1007,1 hPa 0,0 l/m 0 min 0 min 0 W/m 6,4 km/h (2 Bft) 97,87 %
05.06.2019 03:08 19,2 C 17,8 C 17,2 C 82 % 1007,2 hPa 0,0 l/m 0 min 0 min 0 W/m 9,7 km/h (2 Bft) 95,65 %
05.06.2019 03:10 19,2 C 17,8 C 17,8 C 82 % 1007,3 hPa 0,0 l/m 0 min 0 min 0 W/m 6,4 km/h (2 Bft) 95,74 %
05.06.2019 03:12 19,1 C 17,8 C 17,8 C 83 % 1007,2 hPa 0,0 l/m 0 min 0 min 0 W/m 16,1 km/h (3 Bft) 97,87 %
05.06.2019 03:14 19,1 C 17,8 C 17,8 C 83 % 1007,3 hPa 0,0 l/m 0 min 0 min 0 W/m 6,4 km/h (2 Bft) 95,74 %
05.06.2019 03:16 19,1 C 17,8 C 17,8 C 84 % 1007,3 hPa 0,0 l/m 0 min 0 min 0 W/m 12,9 km/h (3 Bft) 97,87 %
05.06.2019 03:18 19,1 C 17,8 C 17,8 C 84 % 1007,3 hPa 0,0 l/m 0 min 0 min 0 W/m 16,1 km/h (3 Bft) 97,87 %
05.06.2019 03:20 19,1 C 17,8 C 17,8 C 84 % 1007,4 hPa 0,0 l/m 0 min 0 min 0 W/m 6,4 km/h (2 Bft) 97,83 %
05.06.2019 03:22 19,1 C 17,8 C 17,8 C 84 % 1007,3 hPa 0,0 l/m 0 min 0 min 0 W/m 6,4 km/h (2 Bft) 97,87 %
05.06.2019 03:24 19,1 C 17,8 C 17,8 C 85 % 1007,4 hPa 0,0 l/m 0 min 0 min 0 W/m 9,7 km/h (2 Bft) 100,00 %
05.06.2019 03:26 19,1 C 17,8 C 17,8 C 85 % 1007,3 hPa 0,0 l/m 0 min 0 min 0 W/m 6,4 km/h (2 Bft) 95,74 %
05.06.2019 03:28 19,1 C 17,8 C 17,8 C 85 % 1007,3 hPa 0,0 l/m 0 min 0 min 0 W/m 0,0 km/h (0 Bft) 97,87 %
05.06.2019 03:30 19,0 C 17,8 C 17,8 C 85 % 1007,3 hPa 0,0 l/m 0 min 0 min 0 W/m 0,0 km/h (0 Bft) 97,87 %
05.06.2019 03:32 19,0 C 17,8 C 17,8 C 85 % 1007,3 hPa 0,0 l/m 0 min 0 min 0 W/m 0,0 km/h (0 Bft) 97,83 %
05.06.2019 03:34 19,0 C 17,8 C 17,8 C 85 % 1007,3 hPa 0,0 l/m 0 min 0 min 0 W/m 0,0 km/h (0 Bft) 95,74 %
05.06.2019 03:36 19,0 C 17,8 C 17,2 C 85 % 1007,3 hPa 0,0 l/m 0 min 0 min 0 W/m 0,0 km/h (0 Bft) 97,87 %
05.06.2019 03:38 19,0 C 17,8 C 17,2 C 85 % 1007,3 hPa 0,0 l/m 0 min 0 min 0 W/m 0,0 km/h (0 Bft) 95,74 %
05.06.2019 03:40 18,9 C 17,2 C 17,2 C 85 % 1007,3 hPa 0,0 l/m 0 min 0 min 0 W/m 0,0 km/h (0 Bft) 97,87 %
05.06.2019 03:42 18,9 C 17,2 C 17,2 C 85 % 1007,3 hPa 0,0 l/m 0 min 0 min 0 W/m 0,0 km/h (0 Bft) 97,87 %
05.06.2019 03:44 18,9 C 17,2 C 17,2 C 85 % 1007,3 hPa 0,0 l/m 0 min 0 min 0 W/m 0,0 km/h (0 Bft) 95,65 %
05.06.2019 03:46 18,9 C 17,2 C 17,2 C 85 % 1007,2 hPa 0,0 l/m 0 min 0 min 0 W/m 0,0 km/h (0 Bft) 97,87 %
05.06.2019 03:48 18,9 C 17,2 C 16,7 C 85 % 1007,2 hPa 0,0 l/m 0 min 0 min 0 W/m 0,0 km/h (0 Bft) 97,87 %
05.06.2019 03:50 18,9 C 17,2 C 16,7 C 85 % 1007,2 hPa 0,0 l/m 0 min 0 min 0 W/m 0,0 km/h (0 Bft) 97,87 %
05.06.2019 03:52 18,8 C 17,2 C 16,7 C 85 % 1007,2 hPa 0,0 l/m 0 min 0 min 0 W/m 0,0 km/h (0 Bft) 97,87 %
05.06.2019 03:54 18,8 C 17,2 C 16,7 C 85 % 1007,2 hPa 0,0 l/m 0 min 0 min 0 W/m 0,0 km/h (0 Bft) 97,87 %
05.06.2019 03:56 18,8 C 17,2 C 16,7 C 86 % 1007,2 hPa 0,0 l/m 0 min 0 min 0 W/m 0,0 km/h (0 Bft) 97,83 %
05.06.2019 03:58 18,8 C 17,2 C 16,7 C 86 % 1007,3 hPa 0,0 l/m 0 min 0 min 0 W/m 0,0 km/h (0 Bft) 93,62 %
05.06.2019 04:00 18,7 C 16,7 C 16,7 C 86 % 1007,2 hPa 0,0 l/m 0 min 0 min 0 W/m 0,0 km/h (0 Bft) 97,87 %
05.06.2019 04:02 18,7 C 16,7 C 16,7 C 86 % 1007,2 hPa 0,0 l/m 0 min 0 min 0 W/m 0,0 km/h (0 Bft) 100,00 %
05.06.2019 04:04 18,7 C 16,7 C 16,7 C 86 % 1007,1 hPa 0,0 l/m 0 min 0 min 0 W/m 0,0 km/h (0 Bft) 100,00 %
05.06.2019 04:06 18,7 C 16,7 C 16,7 C 86 % 1007,0 hPa 0,0 l/m 0 min 0 min 0 W/m 0,0 km/h (0 Bft) 95,74 %
05.06.2019 04:08 18,6 C 16,7 C 16,7 C 86 % 1007,1 hPa 0,0 l/m 0 min 0 min 0 W/m 0,0 km/h (0 Bft) 100,00 %
05.06.2019 04:10 18,6 C 16,7 C 16,7 C 87 % 1007,1 hPa 0,0 l/m 0 min 0 min 0 W/m 0,0 km/h (0 Bft) 100,00 %
05.06.2019 04:12 18,5 C 16,7 C 16,7 C 87 % 1007,1 hPa 0,0 l/m 0 min 0 min 0 W/m 0,0 km/h (0 Bft) 97,87 %
05.06.2019 04:14 18,5 C 16,7 C 16,7 C 87 % 1007,0 hPa 0,0 l/m 0 min 0 min 0 W/m 0,0 km/h (0 Bft) 97,87 %
05.06.2019 04:16 18,4 C 16,7 C 16,7 C 87 % 1007,0 hPa 0,0 l/m 0 min 0 min 0 W/m 0,0 km/h (0 Bft) 97,87 %
05.06.2019 04:18 18,4 C 16,7 C 16,7 C 87 % 1007,0 hPa 0,0 l/m 0 min 0 min 0 W/m 0,0 km/h (0 Bft) 97,83 %
05.06.2019 04:20 18,4 C 16,7 C 16,7 C 87 % 1006,9 hPa 0,0 l/m 0 min 0 min 0 W/m 0,0 km/h (0 Bft) 97,87 %
05.06.2019 04:22 18,4 C 17,2 C 16,7 C 87 % 1006,9 hPa 0,0 l/m 0 min 0 min 0 W/m 3,2 km/h (1 Bft) 100,00 %
05.06.2019 04:24 18,4 C 17,2 C 16,7 C 87 % 1007,0 hPa 0,0 l/m 0 min 0 min 0 W/m 3,2 km/h (1 Bft) 100,00 %
05.06.2019 04:26 18,3 C 16,7 C 16,7 C 87 % 1006,9 hPa 0,0 l/m 0 min 0 min 0 W/m 0,0 km/h (0 Bft) 100,00 %
05.06.2019 04:28 18,3 C 16,7 C 16,7 C 87 % 1006,8 hPa 0,0 l/m 0 min 0 min 0 W/m 0,0 km/h (0 Bft) 100,00 %
05.06.2019 04:30 18,3 C 16,7 C 16,7 C 87 % 1006,7 hPa 0,0 l/m 0 min 0 min 0 W/m 0,0 km/h (0 Bft) 97,83 %
05.06.2019 04:32 18,3 C 16,7 C 16,1 C 87 % 1006,7 hPa 0,0 l/m 0 min 0 min 0 W/m 0,0 km/h (0 Bft) 95,74 %
05.06.2019 04:34 18,2 C 16,7 C 16,1 C 87 % 1006,7 hPa 0,0 l/m 0 min 0 min 0 W/m 0,0 km/h (0 Bft) 97,87 %
05.06.2019 04:36 18,2 C 16,1 C 16,1 C 87 % 1006,9 hPa 0,0 l/m 0 min 0 min 0 W/m 0,0 km/h (0 Bft) 97,87 %
05.06.2019 04:38 18,2 C 16,1 C 16,1 C 87 % 1006,9 hPa 0,0 l/m 0 min 0 min 0 W/m 0,0 km/h (0 Bft) 97,87 %
05.06.2019 04:40 18,2 C 16,1 C 16,1 C 88 % 1006,9 hPa 0,0 l/m 0 min 0 min 0 W/m 0,0 km/h (0 Bft) 97,87 %
05.06.2019 04:42 18,1 C 16,1 C 16,1 C 88 % 1006,9 hPa 0,0 l/m 0 min 0 min 0 W/m 0,0 km/h (0 Bft) 95,65 %
05.06.2019 04:44 18,1 C 16,1 C 16,1 C 88 % 1007,1 hPa 0,0 l/m 0 min 0 min 0 W/m 0,0 km/h (0 Bft) 97,87 %
05.06.2019 04:46 18,1 C 16,1 C 16,1 C 88 % 1007,2 hPa 0,0 l/m 0 min 0 min 0 W/m 0,0 km/h (0 Bft) 97,87 %
05.06.2019 04:48 18,1 C 16,1 C 16,1 C 88 % 1007,4 hPa 0,0 l/m 0 min 0 min 0 W/m 0,0 km/h (0 Bft) 97,87 %
05.06.2019 04:50 18,0 C 16,1 C 16,1 C 88 % 1007,5 hPa 0,0 l/m 0 min 0 min 0 W/m 0,0 km/h (0 Bft) 97,87 %
05.06.2019 04:52 18,0 C 16,1 C 16,1 C 88 % 1007,6 hPa 0,0 l/m 0 min 0 min 0 W/m 0,0 km/h (0 Bft) 97,87 %
05.06.2019 04:54 18,0 C 16,1 C 16,1 C 88 % 1007,7 hPa 0,0 l/m 0 min 0 min 0 W/m 0,0 km/h (0 Bft) 97,83 %
05.06.2019 04:56 17,9 C 16,1 C 16,1 C 88 % 1007,7 hPa 0,0 l/m 0 min 0 min 0 W/m 0,0 km/h (0 Bft) 95,74 %
05.06.2019 04:58 17,9 C 16,7 C 16,1 C 89 % 1007,6 hPa 0,0 l/m 0 min 0 min 0 W/m 0,0 km/h (0 Bft) 97,87 %
05.06.2019 05:00 17,9 C 16,7 C 16,7 C 89 % 1007,5 hPa 0,0 l/m 0 min 0 min 0 W/m 0,0 km/h (0 Bft) 93,62 %
05.06.2019 05:02 17,9 C 16,7 C 16,7 C 89 % 1007,5 hPa 0,0 l/m 0 min 0 min 0 W/m 0,0 km/h (0 Bft) 97,87 %
05.06.2019 05:04 17,9 C 16,7 C 16,7 C 89 % 1007,5 hPa 0,0 l/m 0 min 0 min 0 W/m 0,0 km/h (0 Bft) 97,87 %
05.06.2019 05:05 17,9 C 16,7 C 16,7 C 89 % 1007,5 hPa 0,0 l/m 0 min 0 min 0 W/m 0,0 km/h (0 Bft) 100,00 %
05.06.2019 05:10 17,8 C 16,7 C 16,7 C 90 % 1007,4 hPa 0,0 l/m 0 min 0 min 0 W/m 0,0 km/h (0 Bft) 100,00 %
05.06.2019 05:12 17,8 C 16,7 C 16,7 C 90 % 1007,5 hPa 0,0 l/m 0 min 0 min 0 W/m 3,2 km/h (1 Bft) 100,00 %
05.06.2019 05:14 17,8 C 16,7 C 16,7 C 90 % 1007,5 hPa 0,0 l/m 0 min 0 min 0 W/m 6,4 km/h (2 Bft) 89,36 %
05.06.2019 05:20 17,8 C 16,1 C 16,7 C 90 % 1007,2 hPa 0,0 l/m 0 min 0 min 0 W/m 0,0 km/h (0 Bft) 92,86 %
05.06.2019 05:22 17,8 C 15,6 C 16,1 C 90 % 1007,2 hPa 0,0 l/m 0 min 2 min 0 W/m 3,2 km/h (1 Bft) 95,74 %
05.06.2019 05:24 17,8 C 15,6 C 16,1 C 90 % 1007,4 hPa 0,0 l/m 0 min 2 min 0 W/m 3,2 km/h (1 Bft) 97,87 %
05.06.2019 05:26 17,8 C 15,6 C 16,1 C 90 % 1007,4 hPa 0,0 l/m 0 min 2 min 0 W/m 3,2 km/h (1 Bft) 100,00 %
05.06.2019 05:28 17,8 C 15,6 C 15,6 C 90 % 1007,4 hPa 0,0 l/m 0 min 2 min 0 W/m 3,2 km/h (1 Bft) 100,00 %
05.06.2019 05:30 17,8 C 15,6 C 15,6 C 90 % 1007,6 hPa 0,0 l/m 0 min 2 min 0 W/m 3,2 km/h (1 Bft) 100,00 %
05.06.2019 05:32 17,8 C 15,6 C 15,6 C 91 % 1007,7 hPa 0,0 l/m 0 min 2 min 0 W/m 3,2 km/h (1 Bft) 100,00 %
05.06.2019 05:34 17,8 C 15,6 C 15,6 C 91 % 1007,7 hPa 0,0 l/m 0 min 0 min 0 W/m 6,4 km/h (2 Bft) 100,00 %
05.06.2019 05:36 17,8 C 15,6 C 15,6 C 91 % 1007,7 hPa 0,0 l/m 0 min 0 min 0 W/m 3,2 km/h (1 Bft) 97,87 %
05.06.2019 05:38 17,7 C 15,6 C 15,6 C 91 % 1007,6 hPa 0,0 l/m 0 min 0 min 0 W/m 0,0 km/h (0 Bft) 100,00 %
05.06.2019 05:40 17,7 C 15,6 C 15,6 C 91 % 1007,6 hPa 0,0 l/m 0 min 0 min 0 W/m 0,0 km/h (0 Bft) 100,00 %
05.06.2019 05:42 17,7 C 15,6 C 15,6 C 91 % 1007,6 hPa 0,0 l/m 0 min 0 min 0 W/m 3,2 km/h (1 Bft) 100,00 %
05.06.2019 05:44 17,7 C 15,6 C 15,6 C 91 % 1007,7 hPa 0,0 l/m 0 min 0 min 0 W/m 0,0 km/h (0 Bft) 100,00 %
05.06.2019 05:46 17,7 C 15,6 C 15,6 C 91 % 1007,8 hPa 0,0 l/m 0 min 0 min 0 W/m 3,2 km/h (1 Bft) 97,87 %
05.06.2019 05:48 17,7 C 16,1 C 15,6 C 91 % 1007,9 hPa 0,0 l/m 0 min 0 min 0 W/m 3,2 km/h (1 Bft) 100,00 %
05.06.2019 05:50 17,7 C 16,1 C 15,6 C 91 % 1007,8 hPa 0,0 l/m 0 min 0 min 2 W/m 3,2 km/h (1 Bft) 97,87 %
05.06.2019 05:52 17,7 C 16,1 C 15,6 C 91 % 1007,8 hPa 0,0 l/m 0 min 0 min 5 W/m 3,2 km/h (1 Bft) 97,87 %
05.06.2019 05:54 17,7 C 16,1 C 15,6 C 92 % 1007,9 hPa 0,0 l/m 0 min 0 min 6 W/m 3,2 km/h (1 Bft) 100,00 %
05.06.2019 05:56 17,7 C 16,1 C 15,6 C 92 % 1008,0 hPa 0,0 l/m 0 min 0 min 7 W/m 0,0 km/h (0 Bft) 97,83 %
05.06.2019 05:58 17,7 C 16,1 C 15,6 C 92 % 1008,0 hPa 0,0 l/m 0 min 0 min 9 W/m 0,0 km/h (0 Bft) 97,87 %
05.06.2019 06:00 17,7 C 16,1 C 16,1 C 92 % 1008,1 hPa 0,0 l/m 0 min 0 min 11 W/m 9,7 km/h (2 Bft) 100,00 %
05.06.2019 06:02 17,7 C 16,1 C 16,1 C 92 % 1008,0 hPa 0,0 l/m 0 min 0 min 13 W/m 6,4 km/h (2 Bft) 95,74 %
05.06.2019 06:04 17,7 C 16,1 C 16,1 C 92 % 1008,0 hPa 0,0 l/m 0 min 0 min 15 W/m 6,4 km/h (2 Bft) 95,74 %
05.06.2019 06:08 17,6 C 16,1 C 16,1 C 92 % 1007,9 hPa 0,0 l/m 0 min 0 min 16 W/m 6,4 km/h (2 Bft) 94,62 %
05.06.2019 06:10 17,6 C 16,1 C 16,1 C 92 % 1007,9 hPa 0,0 l/m 0 min 0 min 16 W/m 0,0 km/h (0 Bft) 97,87 %
05.06.2019 06:12 17,6 C 16,1 C 16,1 C 92 % 1007,9 hPa 0,0 l/m 0 min 0 min 15 W/m 0,0 km/h (0 Bft) 95,74 %
05.06.2019 06:14 17,6 C 16,1 C 16,1 C 92 % 1008,0 hPa 0,0 l/m 0 min 0 min 16 W/m 0,0 km/h (0 Bft) 95,74 %
05.06.2019 06:16 17,6 C 16,1 C 16,1 C 92 % 1008,1 hPa 0,0 l/m 0 min 0 min 18 W/m 0,0 km/h (0 Bft) 93,62 %
05.06.2019 06:18 17,6 C 16,1 C 16,1 C 92 % 1008,1 hPa 0,0 l/m 0 min 0 min 20 W/m 3,2 km/h (1 Bft) 95,65 %
05.06.2019 06:20 17,6 C 16,1 C 16,1 C 92 % 1008,0 hPa 0,0 l/m 0 min 0 min 21 W/m 6,4 km/h (2 Bft) 95,74 %
05.06.2019 06:22 17,5 C 16,1 C 16,1 C 92 % 1008,0 hPa 0,0 l/m 0 min 0 min 23 W/m 3,2 km/h (1 Bft) 95,74 %
05.06.2019 06:24 17,5 C 16,1 C 16,1 C 92 % 1008,1 hPa 0,0 l/m 0 min 0 min 27 W/m 3,2 km/h (1 Bft) 95,74 %
05.06.2019 06:26 17,5 C 16,1 C 16,1 C 92 % 1008,1 hPa 0,0 l/m 0 min 0 min 28 W/m 3,2 km/h (1 Bft) 93,62 %
05.06.2019 06:28 17,5 C 16,1 C 16,1 C 92 % 1008,1 hPa 0,0 l/m 0 min 0 min 28 W/m 3,2 km/h (1 Bft) 95,74 %
05.06.2019 06:30 17,5 C 16,1 C 16,1 C 92 % 1008,2 hPa 0,0 l/m 0 min 0 min 28 W/m 0,0 km/h (0 Bft) 95,65 %
05.06.2019 06:32 17,4 C 16,1 C 16,1 C 92 % 1008,3 hPa 0,0 l/m 0 min 0 min 28 W/m 3,2 km/h (1 Bft) 95,74 %
05.06.2019 06:34 17,4 C 16,1 C 16,1 C 92 % 1008,3 hPa 0,0 l/m 0 min 0 min 28 W/m 3,2 km/h (1 Bft) 95,74 %
05.06.2019 06:36 17,4 C 16,1 C 16,1 C 92 % 1008,3 hPa 0,0 l/m 0 min 0 min 27 W/m 0,0 km/h (0 Bft) 93,62 %
05.06.2019 06:38 17,4 C 16,1 C 16,1 C 92 % 1008,4 hPa 0,0 l/m 0 min 0 min 25 W/m 3,2 km/h (1 Bft) 95,74 %
05.06.2019 06:40 17,4 C 16,1 C 16,1 C 92 % 1008,4 hPa 0,0 l/m 0 min 0 min 25 W/m 3,2 km/h (1 Bft) 93,62 %
05.06.2019 06:42 17,4 C 16,1 C 16,1 C 92 % 1008,3 hPa 0,0 l/m 0 min 0 min 26 W/m 3,2 km/h (1 Bft) 95,65 %
05.06.2019 06:44 17,4 C 16,7 C 16,1 C 92 % 1008,4 hPa 0,0 l/m 0 min 0 min 26 W/m 6,4 km/h (2 Bft) 95,74 %
05.06.2019 06:46 17,4 C 16,7 C 16,1 C 92 % 1008,3 hPa 0,0 l/m 0 min 0 min 26 W/m 6,4 km/h (2 Bft) 95,74 %
05.06.2019 06:48 17,5 C 16,7 C 16,1 C 92 % 1008,3 hPa 0,0 l/m 0 min 0 min 24 W/m 3,2 km/h (1 Bft) 95,74 %
05.06.2019 06:50 17,5 C 16,7 C 16,1 C 92 % 1008,3 hPa 0,0 l/m 0 min 0 min 23 W/m 9,7 km/h (2 Bft) 95,74 %
05.06.2019 06:52 17,4 C 16,7 C 16,1 C 92 % 1008,3 hPa 0,0 l/m 0 min 0 min 23 W/m 6,4 km/h (2 Bft) 95,74 %
05.06.2019 06:54 17,5 C 16,7 C 16,1 C 92 % 1008,3 hPa 0,0 l/m 0 min 0 min 23 W/m 6,4 km/h (2 Bft) 93,48 %
05.06.2019 06:56 17,4 C 16,7 C 16,1 C 92 % 1008,3 hPa 0,0 l/m 0 min 0 min 24 W/m 6,4 km/h (2 Bft) 95,74 %
05.06.2019 06:58 17,4 C 16,7 C 16,1 C 92 % 1008,3 hPa 0,0 l/m 0 min 0 min 25 W/m 6,4 km/h (2 Bft) 95,74 %
05.06.2019 07:00 17,4 C 16,7 C 16,1 C 92 % 1008,2 hPa 0,0 l/m 0 min 0 min 25 W/m 6,4 km/h (2 Bft) 95,74 %
05.06.2019 07:02 17,4 C 16,7 C 16,1 C 92 % 1008,2 hPa 0,0 l/m 0 min 0 min 28 W/m 3,2 km/h (1 Bft) 97,87 %
05.06.2019 07:04 17,4 C 16,7 C 16,1 C 92 % 1008,2 hPa 0,0 l/m 0 min 0 min 29 W/m 3,2 km/h (1 Bft) 100,00 %
05.06.2019 07:06 17,4 C 16,7 C 16,1 C 92 % 1008,2 hPa 0,0 l/m 0 min 0 min 30 W/m 3,2 km/h (1 Bft) 100,00 %
05.06.2019 07:08 17,4 C 16,7 C 16,1 C 92 % 1008,2 hPa 0,0 l/m 0 min 0 min 32 W/m 3,2 km/h (1 Bft) 100,00 %
05.06.2019 07:10 17,4 C 16,7 C 16,1 C 92 % 1008,2 hPa 0,0 l/m 0 min 0 min 35 W/m 3,2 km/h (1 Bft) 97,87 %
05.06.2019 07:12 17,4 C 16,7 C 16,1 C 92 % 1008,1 hPa 0,0 l/m 0 min 0 min 40 W/m 9,7 km/h (2 Bft) 95,74 %
05.06.2019 07:14 17,4 C 16,7 C 16,7 C 92 % 1008,1 hPa 0,0 l/m 0 min 0 min 44 W/m 3,2 km/h (1 Bft) 100,00 %
05.06.2019 07:16 17,4 C 17,2 C 16,7 C 92 % 1008,0 hPa 0,0 l/m 0 min 0 min 45 W/m 3,2 km/h (1 Bft) 100,00 %
05.06.2019 07:18 17,4 C 17,2 C 16,7 C 92 % 1008,0 hPa 0,0 l/m 0 min 0 min 48 W/m 3,2 km/h (1 Bft) 100,00 %
05.06.2019 07:20 17,4 C 17,2 C 16,7 C 92 % 1007,9 hPa 0,0 l/m 0 min 0 min 50 W/m 3,2 km/h (1 Bft) 100,00 %
05.06.2019 07:22 17,4 C 17,2 C 16,7 C 92 % 1007,9 hPa 0,0 l/m 0 min 0 min 51 W/m 3,2 km/h (1 Bft) 100,00 %
05.06.2019 07:24 17,5 C 17,2 C 16,7 C 93 % 1007,9 hPa 0,0 l/m 0 min 0 min 50 W/m 3,2 km/h (1 Bft) 97,87 %
05.06.2019 07:26 17,5 C 17,8 C 16,7 C 93 % 1007,9 hPa 0,0 l/m 0 min 0 min 48 W/m 6,4 km/h (2 Bft) 97,87 %
05.06.2019 07:28 17,5 C 17,8 C 16,7 C 93 % 1007,9 hPa 0,0 l/m 0 min 0 min 47 W/m 3,2 km/h (1 Bft) 97,87 %
05.06.2019 07:30 17,5 C 17,8 C 16,7 C 93 % 1007,9 hPa 0,0 l/m 0 min 0 min 47 W/m 3,2 km/h (1 Bft) 97,83 %
05.06.2019 07:32 17,5 C 17,8 C 16,7 C 93 % 1007,9 hPa 0,0 l/m 0 min 0 min 48 W/m 6,4 km/h (2 Bft) 97,87 %
05.06.2019 07:34 17,5 C 17,8 C 17,2 C 93 % 1008,0 hPa 0,0 l/m 0 min 0 min 51 W/m 6,4 km/h (2 Bft) 95,74 %
05.06.2019 07:36 17,6 C 17,8 C 17,2 C 93 % 1008,0 hPa 0,0 l/m 0 min 0 min 52 W/m 3,2 km/h (1 Bft) 97,87 %
05.06.2019 07:38 17,6 C 17,8 C 17,2 C 93 % 1008,0 hPa 0,0 l/m 0 min 0 min 53 W/m 6,4 km/h (2 Bft) 97,87 %
05.06.2019 07:40 17,6 C 17,8 C 17,2 C 93 % 1008,0 hPa 0,0 l/m 0 min 0 min 53 W/m 3,2 km/h (1 Bft) 97,87 %
05.06.2019 07:42 17,6 C 18,3 C 17,2 C 93 % 1007,9 hPa 0,0 l/m 0 min 0 min 53 W/m 6,4 km/h (2 Bft) 97,83 %
05.06.2019 07:44 17,6 C 18,3 C 17,2 C 93 % 1007,9 hPa 0,0 l/m 0 min 0 min 55 W/m 6,4 km/h (2 Bft) 97,87 %
05.06.2019 07:46 17,7 C 18,3 C 17,2 C 93 % 1007,9 hPa 0,0 l/m 0 min 0 min 57 W/m 3,2 km/h (1 Bft) 97,87 %
05.06.2019 07:48 17,7 C 18,3 C 17,2 C 93 % 1007,9 hPa 0,0 l/m 0 min 0 min 61 W/m 3,2 km/h (1 Bft) 97,87 %
05.06.2019 07:50 17,7 C 18,3 C 17,2 C 93 % 1008,0 hPa 0,0 l/m 0 min 0 min 63 W/m 0,0 km/h (0 Bft) 95,74 %
05.06.2019 07:52 17,7 C 18,9 C 17,8 C 93 % 1008,0 hPa 0,0 l/m 0 min 0 min 67 W/m 6,4 km/h (2 Bft) 97,83 %
05.06.2019 07:54 17,7 C 18,9 C 17,8 C 93 % 1007,9 hPa 0,0 l/m 0 min 0 min 72 W/m 6,4 km/h (2 Bft) 97,87 %
05.06.2019 07:56 17,8 C 19,4 C 17,8 C 93 % 1007,9 hPa 0,0 l/m 0 min 0 min 72 W/m 3,2 km/h (1 Bft) 97,87 %
05.06.2019 07:58 17,8 C 20,6 C 17,8 C 92 % 1007,9 hPa 0,0 l/m 0 min 0 min 72 W/m 6,4 km/h (2 Bft) 97,87 %
05.06.2019 08:00 17,8 C 22,2 C 18,3 C 92 % 1008,0 hPa 0,0 l/m 0 min 0 min 80 W/m 3,2 km/h (1 Bft) 97,87 %
05.06.2019 08:02 17,9 C 21,1 C 18,3 C 92 % 1008,0 hPa 0,0 l/m 0 min 0 min 94 W/m 9,7 km/h (2 Bft) 97,87 %
05.06.2019 08:04 17,9 C 21,1 C 18,3 C 92 % 1008,0 hPa 0,0 l/m 0 min 0 min 87 W/m 9,7 km/h (2 Bft) 97,83 %
05.06.2019 08:06 18,0 C 20,0 C 18,3 C 92 % 1008,1 hPa 0,0 l/m 0 min 0 min 82 W/m 6,4 km/h (2 Bft) 97,87 %
05.06.2019 08:08 18,0 C 20,0 C 18,3 C 92 % 1008,1 hPa 0,0 l/m 0 min 0 min 93 W/m 3,2 km/h (1 Bft) 100,00 %
05.06.2019 08:10 18,1 C 19,4 C 18,3 C 91 % 1008,1 hPa 0,0 l/m 0 min 0 min 104 W/m 6,4 km/h (2 Bft) 100,00 %
05.06.2019 08:12 18,1 C 19,4 C 18,3 C 91 % 1008,0 hPa 0,0 l/m 0 min 0 min 108 W/m 3,2 km/h (1 Bft) 100,00 %
05.06.2019 08:14 18,2 C 19,4 C 18,3 C 91 % 1008,1 hPa 0,0 l/m 0 min 0 min 118 W/m 3,2 km/h (1 Bft) 100,00 %
05.06.2019 08:16 18,3 C 19,4 C 18,3 C 91 % 1008,2 hPa 0,0 l/m 0 min 0 min 129 W/m 3,2 km/h (1 Bft) 97,83 %
05.06.2019 08:18 18,3 C 19,4 C 18,3 C 91 % 1008,2 hPa 0,0 l/m 0 min 0 min 138 W/m 6,4 km/h (2 Bft) 100,00 %
05.06.2019 08:20 18,4 C 19,4 C 18,3 C 91 % 1008,1 hPa 0,0 l/m 0 min 0 min 144 W/m 3,2 km/h (1 Bft) 100,00 %
05.06.2019 08:22 18,5 C 20,6 C 18,9 C 91 % 1008,1 hPa 0,0 l/m 0 min 0 min 158 W/m 3,2 km/h (1 Bft) 100,00 %
05.06.2019 08:24 18,6 C 21,1 C 18,9 C 91 % 1008,3 hPa 0,0 l/m 0 min 0 min 164 W/m 6,4 km/h (2 Bft) 100,00 %
05.06.2019 08:26 18,7 C 22,2 C 19,4 C 90 % 1008,3 hPa 0,0 l/m 0 min 0 min 160 W/m 3,2 km/h (1 Bft) 100,00 %
05.06.2019 08:28 18,8 C 21,7 C 20,0 C 90 % 1008,3 hPa 0,0 l/m 0 min 0 min 153 W/m 6,4 km/h (2 Bft) 100,00 %
05.06.2019 08:30 18,8 C 21,1 C 20,0 C 90 % 1008,3 hPa 0,0 l/m 0 min 0 min 148 W/m 6,4 km/h (2 Bft) 97,87 %
05.06.2019 08:32 18,9 C 21,1 C 19,4 C 90 % 1008,2 hPa 0,0 l/m 0 min 0 min 153 W/m 9,7 km/h (2 Bft) 97,87 %
05.06.2019 08:34 19,0 C 21,1 C 19,4 C 89 % 1008,3 hPa 0,0 l/m 0 min 0 min 171 W/m 6,4 km/h (2 Bft) 97,87 %
05.06.2019 08:36 19,1 C 21,1 C 20,0 C 89 % 1008,4 hPa 0,0 l/m 0 min 0 min 178 W/m 9,7 km/h (2 Bft) 100,00 %
05.06.2019 08:38 19,1 C 22,2 C 21,1 C 88 % 1008,4 hPa 0,0 l/m 0 min 0 min 177 W/m 6,4 km/h (2 Bft) 100,00 %
05.06.2019 08:40 19,2 C 21,7 C 20,6 C 88 % 1008,3 hPa 0,0 l/m 0 min 0 min 159 W/m 6,4 km/h (2 Bft) 100,00 %
05.06.2019 08:42 19,3 C 22,2 C 20,6 C 88 % 1008,4 hPa 0,0 l/m 0 min 0 min 162 W/m 9,7 km/h (2 Bft) 100,00 %
05.06.2019 08:44 19,3 C 21,7 C 20,0 C 88 % 1008,4 hPa 0,0 l/m 0 min 0 min 167 W/m 6,4 km/h (2 Bft) 100,00 %
05.06.2019 08:46 19,4 C 22,2 C 20,6 C 87 % 1008,5 hPa 0,0 l/m 0 min 0 min 197 W/m 9,7 km/h (2 Bft) 100,00 %
05.06.2019 08:48 19,5 C 22,8 C 21,7 C 87 % 1008,4 hPa 0,0 l/m 0 min 0 min 230 W/m 6,4 km/h (2 Bft) 100,00 %
05.06.2019 08:50 19,6 C 23,3 C 22,2 C 86 % 1008,4 hPa 0,0 l/m 2 min 0 min 258 W/m 12,9 km/h (3 Bft) 100,00 %
05.06.2019 08:52 19,7 C 23,9 C 22,8 C 85 % 1008,4 hPa 0,0 l/m 2 min 0 min 276 W/m 12,9 km/h (3 Bft) 100,00 %
05.06.2019 08:54 19,8 C 25,0 C 23,9 C 84 % 1008,4 hPa 0,0 l/m 2 min 0 min 342 W/m 9,7 km/h (2 Bft) 100,00 %
05.06.2019 08:56 19,9 C 25,6 C 24,4 C 84 % 1008,4 hPa 0,0 l/m 2 min 0 min 346 W/m 9,7 km/h (2 Bft) 97,87 %
05.06.2019 08:58 20,1 C 26,1 C 25,6 C 83 % 1008,4 hPa 0,0 l/m 2 min 0 min 344 W/m 6,4 km/h (2 Bft) 93,62 %
05.06.2019 09:00 20,3 C 25,0 C 23,9 C 83 % 1008,5 hPa 0,0 l/m 0 min 0 min 250 W/m 6,4 km/h (2 Bft) 97,87 %
05.06.2019 09:02 20,4 C 23,3 C 22,2 C 82 % 1008,6 hPa 0,0 l/m 0 min 0 min 139 W/m 16,1 km/h (3 Bft) 95,65 %
05.06.2019 09:04 20,4 C 22,2 C 21,1 C 81 % 1008,5 hPa 0,0 l/m 0 min 0 min 143 W/m 12,9 km/h (3 Bft) 100,00 %
05.06.2019 09:06 20,5 C 21,7 C 20,6 C 81 % 1008,5 hPa 0,0 l/m 0 min 0 min 165 W/m 9,7 km/h (2 Bft) 100,00 %
05.06.2019 09:08 20,6 C 21,7 C 20,6 C 80 % 1008,5 hPa 0,0 l/m 0 min 0 min 183 W/m 9,7 km/h (2 Bft) 97,87 %
05.06.2019 09:10 20,6 C 21,1 C 20,6 C 79 % 1008,6 hPa 0,0 l/m 0 min 0 min 206 W/m 9,7 km/h (2 Bft) 97,87 %
05.06.2019 09:12 20,6 C 21,7 C 20,6 C 79 % 1008,6 hPa 0,0 l/m 0 min 0 min 244 W/m 6,4 km/h (2 Bft) 97,87 %
05.06.2019 09:14 20,7 C 21,1 C 20,6 C 79 % 1008,7 hPa 0,0 l/m 0 min 0 min 227 W/m 9,7 km/h (2 Bft) 97,87 %
05.06.2019 09:16 20,7 C 21,1 C 20,6 C 78 % 1008,8 hPa 0,0 l/m 0 min 0 min 202 W/m 9,7 km/h (2 Bft) 97,83 %
05.06.2019 09:18 20,7 C 21,7 C 20,6 C 78 % 1008,8 hPa 0,0 l/m 0 min 0 min 186 W/m 9,7 km/h (2 Bft) 95,74 %
05.06.2019 09:20 20,7 C 22,8 C 22,2 C 78 % 1008,8 hPa 0,0 l/m 2 min 0 min 313 W/m 9,7 km/h (2 Bft) 95,74 %
05.06.2019 09:22 20,7 C 23,9 C 23,9 C 79 % 1008,9 hPa 0,0 l/m 2 min 0 min 564 W/m 6,4 km/h (2 Bft) 95,74 %
05.06.2019 09:24 20,8 C 25,6 C 25,0 C 80 % 1008,8 hPa 0,0 l/m 2 min 0 min 520 W/m 12,9 km/h (3 Bft) 97,87 %
05.06.2019 09:26 20,9 C 25,6 C 25,0 C 78 % 1008,7 hPa 0,0 l/m 2 min 0 min 515 W/m 12,9 km/h (3 Bft) 93,48 %
05.06.2019 09:28 21,0 C 26,7 C 26,1 C 79 % 1008,9 hPa 0,0 l/m 2 min 0 min 518 W/m 9,7 km/h (2 Bft) 95,74 %
05.06.2019 09:30 21,1 C 27,2 C 26,7 C 78 % 1008,9 hPa 0,0 l/m 2 min 0 min 528 W/m 16,1 km/h (3 Bft) 95,74 %
05.06.2019 09:32 21,2 C 27,2 C 26,7 C 79 % 1008,9 hPa 0,0 l/m 2 min 0 min 538 W/m 6,4 km/h (2 Bft) 95,74 %
05.06.2019 09:34 21,4 C 27,8 C 27,2 C 79 % 1008,9 hPa 0,0 l/m 2 min 0 min 548 W/m 6,4 km/h (2 Bft) 95,74 %
05.06.2019 09:36 21,6 C 27,8 C 27,2 C 79 % 1008,8 hPa 0,0 l/m 2 min 0 min 547 W/m 9,7 km/h (2 Bft) 95,74 %
05.06.2019 09:38 21,7 C 27,2 C 26,7 C 78 % 1008,8 hPa 0,0 l/m 2 min 0 min 527 W/m 19,3 km/h (3 Bft) 95,65 %
05.06.2019 09:40 21,7 C 26,7 C 26,1 C 77 % 1008,8 hPa 0,0 l/m 2 min 0 min 543 W/m 12,9 km/h (3 Bft) 93,62 %
05.06.2019 09:42 21,8 C 27,2 C 26,7 C 78 % 1008,8 hPa 0,0 l/m 2 min 0 min 556 W/m 9,7 km/h (2 Bft) 95,74 %
05.06.2019 09:44 21,9 C 27,2 C 26,7 C 78 % 1008,8 hPa 0,0 l/m 2 min 0 min 560 W/m 9,7 km/h (2 Bft) 95,74 %
05.06.2019 09:46 22,0 C 26,1 C 26,1 C 77 % 1008,9 hPa 0,0 l/m 2 min 0 min 567 W/m 12,9 km/h (3 Bft) 97,87 %
05.06.2019 09:48 22,1 C 27,2 C 26,7 C 77 % 1008,8 hPa 0,0 l/m 2 min 0 min 584 W/m 12,9 km/h (3 Bft) 95,74 %
05.06.2019 09:50 22,1 C 27,2 C 26,7 C 77 % 1008,8 hPa 0,0 l/m 2 min 0 min 577 W/m 6,4 km/h (2 Bft) 93,48 %
05.06.2019 09:52 22,1 C 27,2 C 27,2 C 77 % 1008,8 hPa 0,0 l/m 2 min 0 min 583 W/m 16,1 km/h (3 Bft) 91,49 %
05.06.2019 09:54 22,2 C 27,2 C 27,2 C 77 % 1008,8 hPa 0,0 l/m 2 min 0 min 596 W/m 9,7 km/h (2 Bft) 93,62 %
05.06.2019 09:56 22,2 C 27,8 C 27,2 C 77 % 1008,8 hPa 0,0 l/m 2 min 0 min 607 W/m 12,9 km/h (3 Bft) 89,36 %
05.06.2019 09:58 22,3 C 27,2 C 26,7 C 76 % 1008,8 hPa 0,0 l/m 2 min 0 min 629 W/m 16,1 km/h (3 Bft) 91,49 %
05.06.2019 10:00 22,4 C 27,2 C 26,7 C 77 % 1008,8 hPa 0,0 l/m 2 min 0 min 559 W/m 6,4 km/h (2 Bft) 95,74 %
05.06.2019 10:02 22,4 C 25,0 C 24,4 C 77 % 1008,8 hPa 0,0 l/m 0 min 0 min 192 W/m 12,9 km/h (3 Bft) 91,30 %
05.06.2019 10:04 22,3 C 23,9 C 23,9 C 77 % 1008,8 hPa 0,0 l/m 0 min 0 min 198 W/m 6,4 km/h (2 Bft) 93,62 %
05.06.2019 10:06 22,2 C 25,0 C 25,0 C 77 % 1008,7 hPa 0,0 l/m 0 min 0 min 307 W/m 9,7 km/h (2 Bft) 91,49 %
05.06.2019 10:08 22,2 C 25,6 C 25,0 C 76 % 1008,7 hPa 0,0 l/m 2 min 0 min 562 W/m 12,9 km/h (3 Bft) 95,74 %
05.06.2019 10:10 22,2 C 26,1 C 25,6 C 77 % 1008,7 hPa 0,0 l/m 2 min 0 min 585 W/m 9,7 km/h (2 Bft) 93,62 %
05.06.2019 10:12 22,2 C 25,6 C 25,0 C 77 % 1008,7 hPa 0,0 l/m 2 min 0 min 500 W/m 12,9 km/h (3 Bft) 95,74 %
05.06.2019 10:14 22,3 C 26,7 C 26,1 C 77 % 1008,6 hPa 0,0 l/m 0 min 0 min 176 W/m 9,7 km/h (2 Bft) 95,65 %
05.06.2019 10:16 22,3 C 27,8 C 27,2 C 77 % 1008,6 hPa 0,0 l/m 2 min 0 min 438 W/m 12,9 km/h (3 Bft) 95,74 %
05.06.2019 10:18 22,4 C 29,4 C 28,3 C 77 % 1008,6 hPa 0,0 l/m 2 min 0 min 682 W/m 12,9 km/h (3 Bft) 95,74 %
05.06.2019 10:20 22,6 C 29,4 C 28,9 C 76 % 1008,5 hPa 0,0 l/m 2 min 0 min 684 W/m 16,1 km/h (3 Bft) 95,74 %
05.06.2019 10:22 22,6 C 29,4 C 29,4 C 76 % 1008,7 hPa 0,0 l/m 2 min 0 min 642 W/m 9,7 km/h (2 Bft) 95,74 %
05.06.2019 10:24 22,7 C 28,9 C 29,4 C 75 % 1008,7 hPa 0,0 l/m 2 min 0 min 680 W/m 6,4 km/h (2 Bft) 95,74 %
05.06.2019 10:26 22,7 C 29,4 C 29,4 C 75 % 1008,7 hPa 0,0 l/m 2 min 0 min 662 W/m 6,4 km/h (2 Bft) 97,83 %
05.06.2019 10:28 22,9 C 30,6 C 31,1 C 76 % 1008,8 hPa 0,0 l/m 2 min 0 min 707 W/m 6,4 km/h (2 Bft) 93,62 %
05.06.2019 10:30 23,1 C 31,7 C 31,7 C 75 % 1008,8 hPa 0,0 l/m 2 min 0 min 772 W/m 3,2 km/h (1 Bft) 97,87 %
05.06.2019 10:32 23,1 C 29,4 C 30,0 C 73 % 1008,8 hPa 0,0 l/m 2 min 0 min 800 W/m 9,7 km/h (2 Bft) 95,74 %
05.06.2019 10:34 23,2 C 28,9 C 28,9 C 73 % 1008,7 hPa 0,0 l/m 2 min 0 min 709 W/m 3,2 km/h (1 Bft) 97,87 %
05.06.2019 10:36 23,3 C 30,0 C 29,4 C 73 % 1008,9 hPa 0,0 l/m 2 min 0 min 737 W/m 9,7 km/h (2 Bft) 100,00 %
05.06.2019 10:38 23,3 C 28,3 C 28,3 C 73 % 1008,8 hPa 0,0 l/m 2 min 0 min 594 W/m 6,4 km/h (2 Bft) 97,83 %
05.06.2019 10:40 23,4 C 28,9 C 28,9 C 73 % 1008,8 hPa 0,0 l/m 2 min 0 min 549 W/m 9,7 km/h (2 Bft) 100,00 %
05.06.2019 10:42 23,4 C 27,2 C 27,2 C 72 % 1008,9 hPa 0,0 l/m 2 min 0 min 620 W/m 6,4 km/h (2 Bft) 100,00 %
05.06.2019 10:44 23,4 C 28,3 C 28,3 C 72 % 1008,9 hPa 0,0 l/m 0 min 0 min 258 W/m 9,7 km/h (2 Bft) 100,00 %
05.06.2019 10:46 23,4 C 28,9 C 28,3 C 71 % 1009,1 hPa 0,0 l/m 0 min 0 min 328 W/m 12,9 km/h (3 Bft) 100,00 %
05.06.2019 10:48 23,5 C 30,6 C 30,0 C 71 % 1009,1 hPa 0,0 l/m 2 min 0 min 798 W/m 9,7 km/h (2 Bft) 100,00 %
05.06.2019 10:50 23,6 C 30,6 C 30,0 C 71 % 1009,1 hPa 0,0 l/m 2 min 0 min 745 W/m 9,7 km/h (2 Bft) 100,00 %
05.06.2019 10:52 23,7 C 32,2 C 31,1 C 73 % 1009,1 hPa 0,0 l/m 2 min 0 min 861 W/m 6,4 km/h (2 Bft) 100,00 %
05.06.2019 10:54 23,8 C 32,8 C 32,2 C 73 % 1009,1 hPa 0,0 l/m 2 min 0 min 833 W/m 9,7 km/h (2 Bft) 100,00 %
05.06.2019 10:56 23,9 C 32,2 C 31,1 C 70 % 1009,1 hPa 0,0 l/m 2 min 0 min 872 W/m 9,7 km/h (2 Bft) 100,00 %
05.06.2019 10:58 24,1 C 31,1 C 30,6 C 71 % 1009,1 hPa 0,0 l/m 2 min 0 min 751 W/m 6,4 km/h (2 Bft) 100,00 %
05.06.2019 11:00 24,2 C 30,6 C 30,0 C 69 % 1009,1 hPa 0,0 l/m 2 min 0 min 865 W/m 6,4 km/h (2 Bft) 100,00 %
05.06.2019 11:02 24,2 C 31,7 C 30,6 C 69 % 1009,0 hPa 0,0 l/m 2 min 0 min 865 W/m 6,4 km/h (2 Bft) 100,00 %
05.06.2019 11:04 24,3 C 32,8 C 31,7 C 70 % 1009,0 hPa 0,0 l/m 2 min 0 min 831 W/m 9,7 km/h (2 Bft) 100,00 %
05.06.2019 11:06 24,4 C 32,8 C 32,2 C 70 % 1009,0 hPa 0,0 l/m 2 min 0 min 809 W/m 6,4 km/h (2 Bft) 97,87 %
05.06.2019 11:08 24,6 C 33,3 C 33,3 C 70 % 1008,9 hPa 0,0 l/m 2 min 0 min 797 W/m 12,9 km/h (3 Bft) 100,00 %
05.06.2019 11:10 24,8 C 33,9 C 33,3 C 70 % 1008,9 hPa 0,0 l/m 2 min 0 min 812 W/m 3,2 km/h (1 Bft) 100,00 %
05.06.2019 11:12 24,9 C 33,9 C 33,3 C 69 % 1008,8 hPa 0,0 l/m 2 min 0 min 811 W/m 3,2 km/h (1 Bft) 100,00 %
05.06.2019 11:14 25,1 C 32,8 C 32,2 C 68 % 1008,7 hPa 0,0 l/m 2 min 0 min 652 W/m 6,4 km/h (2 Bft) 100,00 %
05.06.2019 11:16 25,1 C 33,9 C 33,9 C 68 % 1008,6 hPa 0,0 l/m 2 min 0 min 694 W/m 3,2 km/h (1 Bft) 100,00 %
05.06.2019 11:20 25,3 C 32,8 C 33,3 C 66 % 1008,5 hPa 0,0 l/m 4 min 0 min 808 W/m 12,9 km/h (3 Bft) 100,00 %
05.06.2019 11:24 25,4 C 32,8 C 33,3 C 68 % 1008,5 hPa 0,0 l/m 4 min 0 min 761 W/m 3,2 km/h (1 Bft) 100,00 %
05.06.2019 11:26 25,3 C 32,2 C 33,3 C 66 % 1008,5 hPa 0,0 l/m 2 min 0 min 743 W/m 9,7 km/h (2 Bft) 98,31 %
05.06.2019 11:28 25,3 C 32,8 C 32,8 C 65 % 1008,6 hPa 0,0 l/m 2 min 0 min 718 W/m 6,4 km/h (2 Bft) 100,00 %
05.06.2019 11:30 25,3 C 32,8 C 32,2 C 66 % 1008,4 hPa 0,0 l/m 2 min 0 min 739 W/m 3,2 km/h (1 Bft) 100,00 %
05.06.2019 11:32 25,3 C 32,8 C 32,2 C 67 % 1008,5 hPa 0,0 l/m 2 min 0 min 829 W/m 6,4 km/h (2 Bft) 100,00 %
05.06.2019 11:34 25,2 C 31,7 C 31,1 C 65 % 1008,5 hPa 0,0 l/m 2 min 0 min 857 W/m 6,4 km/h (2 Bft) 100,00 %
05.06.2019 11:36 25,2 C 32,2 C 31,1 C 64 % 1008,5 hPa 0,0 l/m 2 min 0 min 844 W/m 6,4 km/h (2 Bft) 100,00 %
05.06.2019 11:38 25,2 C 31,1 C 31,1 C 64 % 1008,5 hPa 0,0 l/m 2 min 0 min 843 W/m 6,4 km/h (2 Bft) 100,00 %
05.06.2019 11:40 25,2 C 32,8 C 32,2 C 65 % 1008,6 hPa 0,0 l/m 2 min 0 min 851 W/m 6,4 km/h (2 Bft) 100,00 %
05.06.2019 11:42 25,3 C 32,8 C 32,2 C 65 % 1008,5 hPa 0,0 l/m 2 min 0 min 854 W/m 6,4 km/h (2 Bft) 97,87 %
05.06.2019 11:44 25,3 C 31,1 C 31,7 C 63 % 1008,5 hPa 0,0 l/m 2 min 0 min 863 W/m 9,7 km/h (2 Bft) 100,00 %
05.06.2019 11:46 25,3 C 32,8 C 32,8 C 63 % 1008,4 hPa 0,0 l/m 2 min 0 min 859 W/m 6,4 km/h (2 Bft) 100,00 %
05.06.2019 11:48 25,4 C 34,4 C 33,3 C 66 % 1008,4 hPa 0,0 l/m 2 min 0 min 859 W/m 3,2 km/h (1 Bft) 100,00 %
05.06.2019 11:50 25,4 C 33,9 C 33,9 C 63 % 1008,4 hPa 0,0 l/m 2 min 0 min 875 W/m 6,4 km/h (2 Bft) 100,00 %
05.06.2019 11:52 25,4 C 32,2 C 32,2 C 62 % 1008,4 hPa 0,0 l/m 2 min 0 min 860 W/m 6,4 km/h (2 Bft) 100,00 %
05.06.2019 11:54 25,4 C 32,8 C 32,8 C 62 % 1008,4 hPa 0,0 l/m 2 min 0 min 884 W/m 3,2 km/h (1 Bft) 100,00 %
05.06.2019 11:56 25,5 C 32,8 C 32,8 C 62 % 1008,3 hPa 0,0 l/m 2 min 0 min 870 W/m 6,4 km/h (2 Bft) 100,00 %
05.06.2019 11:58 25,6 C 32,8 C 33,3 C 64 % 1008,3 hPa 0,0 l/m 2 min 0 min 856 W/m 9,7 km/h (2 Bft) 100,00 %
05.06.2019 12:00 25,7 C 33,3 C 34,4 C 63 % 1008,4 hPa 0,0 l/m 2 min 0 min 901 W/m 6,4 km/h (2 Bft) 97,87 %
05.06.2019 12:02 25,8 C 33,9 C 35,0 C 66 % 1008,4 hPa 0,0 l/m 2 min 0 min 939 W/m 3,2 km/h (1 Bft) 100,00 %
05.06.2019 12:04 25,8 C 34,4 C 35,0 C 62 % 1008,4 hPa 0,0 l/m 2 min 0 min 959 W/m 6,4 km/h (2 Bft) 100,00 %
05.06.2019 12:08 25,9 C 32,2 C 32,8 C 61 % 1008,5 hPa 0,0 l/m 4 min 0 min 992 W/m 9,7 km/h (2 Bft) 100,00 %
05.06.2019 12:10 25,9 C 30,6 C 30,6 C 62 % 1008,4 hPa 0,0 l/m 2 min 0 min 450 W/m 3,2 km/h (1 Bft) 97,87 %
05.06.2019 12:12 25,9 C 29,4 C 29,4 C 65 % 1008,4 hPa 0,0 l/m 0 min 0 min 283 W/m 3,2 km/h (1 Bft) 100,00 %
05.06.2019 12:14 25,8 C 27,2 C 27,8 C 63 % 1008,4 hPa 0,0 l/m 0 min 0 min 278 W/m 6,4 km/h (2 Bft) 100,00 %
05.06.2019 12:16 25,7 C 27,2 C 26,7 C 63 % 1008,4 hPa 0,0 l/m 0 min 0 min 277 W/m 6,4 km/h (2 Bft) 100,00 %
05.06.2019 12:18 25,6 C 26,1 C 26,1 C 61 % 1008,4 hPa 0,0 l/m 0 min 0 min 256 W/m 6,4 km/h (2 Bft) 100,00 %
05.06.2019 12:20 25,4 C 25,6 C 25,0 C 62 % 1008,4 hPa 0,0 l/m 0 min 0 min 239 W/m 12,9 km/h (3 Bft) 100,00 %
05.06.2019 12:22 25,3 C 25,6 C 25,0 C 63 % 1008,4 hPa 0,0 l/m 0 min 0 min 228 W/m 12,9 km/h (3 Bft) 97,87 %
05.06.2019 12:24 25,2 C 25,0 C 24,4 C 65 % 1008,4 hPa 0,0 l/m 0 min 0 min 241 W/m 6,4 km/h (2 Bft) 95,74 %
05.06.2019 12:26 25,1 C 25,0 C 24,4 C 65 % 1008,4 hPa 0,0 l/m 0 min 0 min 263 W/m 3,2 km/h (1 Bft) 95,74 %
05.06.2019 12:28 25,0 C 25,0 C 24,4 C 65 % 1008,4 hPa 0,0 l/m 0 min 0 min 256 W/m 6,4 km/h (2 Bft) 95,24 %
05.06.2019 12:30 24,9 C 25,0 C 24,4 C 65 % 1008,3 hPa 0,0 l/m 0 min 0 min 254 W/m 9,7 km/h (2 Bft) 93,75 %
05.06.2019 12:32 24,8 C 25,0 C 24,4 C 66 % 1008,4 hPa 0,0 l/m 0 min 0 min 247 W/m 6,4 km/h (2 Bft) 95,74 %
05.06.2019 12:34 24,7 C 25,0 C 24,4 C 67 % 1008,4 hPa 0,0 l/m 0 min 0 min 244 W/m 3,2 km/h (1 Bft) 95,92 %
05.06.2019 12:36 24,6 C 25,0 C 24,4 C 67 % 1008,3 hPa 0,0 l/m 0 min 0 min 246 W/m 3,2 km/h (1 Bft) 93,62 %
05.06.2019 12:38 24,6 C 25,6 C 24,4 C 69 % 1008,3 hPa 0,0 l/m 0 min 0 min 266 W/m 3,2 km/h (1 Bft) 95,74 %
05.06.2019 12:40 24,6 C 28,3 C 27,2 C 69 % 1008,4 hPa 0,0 l/m 0 min 0 min 304 W/m 6,4 km/h (2 Bft) 95,65 %
05.06.2019 12:42 24,6 C 30,0 C 29,4 C 70 % 1008,4 hPa 0,0 l/m 2 min 0 min 969 W/m 3,2 km/h (1 Bft) 93,62 %
05.06.2019 12:44 24,7 C 31,7 C 31,1 C 69 % 1008,5 hPa 0,0 l/m 2 min 0 min 1057 W/m 9,7 km/h (2 Bft) 93,62 %
05.06.2019 12:46 24,7 C 31,7 C 32,2 C 67 % 1008,4 hPa 0,0 l/m 2 min 0 min 1022 W/m 12,9 km/h (3 Bft) 93,62 %
05.06.2019 12:48 24,8 C 30,0 C 30,6 C 67 % 1008,4 hPa 0,0 l/m 2 min 0 min 678 W/m 6,4 km/h (2 Bft) 95,74 %
05.06.2019 12:50 24,9 C 28,9 C 28,9 C 66 % 1008,4 hPa 0,0 l/m 0 min 0 min 336 W/m 6,4 km/h (2 Bft) 93,62 %
05.06.2019 12:52 24,9 C 28,9 C 28,9 C 66 % 1008,4 hPa 0,0 l/m 0 min 0 min 311 W/m 6,4 km/h (2 Bft) 93,48 %
05.06.2019 12:54 24,9 C 29,4 C 28,9 C 65 % 1008,4 hPa 0,0 l/m 2 min 0 min 506 W/m 3,2 km/h (1 Bft) 93,62 %
05.06.2019 12:56 25,0 C 31,1 C 31,1 C 64 % 1008,4 hPa 0,0 l/m 2 min 0 min 749 W/m 6,4 km/h (2 Bft) 95,74 %
05.06.2019 12:58 25,1 C 30,6 C 30,0 C 65 % 1008,4 hPa 0,0 l/m 2 min 0 min 959 W/m 6,4 km/h (2 Bft) 95,74 %
05.06.2019 13:00 25,1 C 29,4 C 27,8 C 65 % 1008,4 hPa 0,0 l/m 0 min 0 min 403 W/m 6,4 km/h (2 Bft) 93,62 %
05.06.2019 13:02 25,2 C 28,9 C 27,8 C 65 % 1008,4 hPa 0,0 l/m 0 min 0 min 370 W/m 3,2 km/h (1 Bft) 93,48 %
05.06.2019 13:04 25,3 C 28,3 C 27,2 C 67 % 1008,3 hPa 0,0 l/m 0 min 0 min 365 W/m 3,2 km/h (1 Bft) 91,49 %
05.06.2019 13:06 25,2 C 27,2 C 26,1 C 65 % 1008,4 hPa 0,0 l/m 0 min 0 min 390 W/m 12,9 km/h (3 Bft) 97,87 %
05.06.2019 13:08 25,2 C 27,2 C 26,1 C 66 % 1008,4 hPa 0,0 l/m 0 min 0 min 383 W/m 9,7 km/h (2 Bft) 95,74 %
05.06.2019 13:10 25,2 C 27,2 C 26,1 C 67 % 1008,4 hPa 0,0 l/m 0 min 0 min 417 W/m 6,4 km/h (2 Bft) 93,62 %
05.06.2019 13:12 25,2 C 29,4 C 27,8 C 67 % 1008,3 hPa 0,0 l/m 0 min 0 min 437 W/m 3,2 km/h (1 Bft) 93,62 %
05.06.2019 13:14 25,3 C 30,6 C 30,0 C 66 % 1008,4 hPa 0,0 l/m 0 min 0 min 436 W/m 9,7 km/h (2 Bft) 93,48 %
05.06.2019 13:16 25,3 C 30,0 C 29,4 C 66 % 1008,4 hPa 0,0 l/m 0 min 0 min 434 W/m 6,4 km/h (2 Bft) 91,49 %
05.06.2019 13:18 25,4 C 31,7 C 30,6 C 68 % 1008,4 hPa 0,0 l/m 2 min 0 min 469 W/m 6,4 km/h (2 Bft) 95,74 %
05.06.2019 13:20 25,5 C 33,3 C 32,2 C 67 % 1008,3 hPa 0,0 l/m 2 min 0 min 1000 W/m 6,4 km/h (2 Bft) 93,62 %
05.06.2019 13:22 25,6 C 32,2 C 32,2 C 62 % 1008,3 hPa 0,0 l/m 2 min 0 min 995 W/m 9,7 km/h (2 Bft) 93,62 %
05.06.2019 13:24 25,7 C 32,8 C 32,8 C 64 % 1008,3 hPa 0,0 l/m 2 min 0 min 997 W/m 6,4 km/h (2 Bft) 97,87 %
05.06.2019 13:26 25,8 C 33,9 C 33,9 C 65 % 1008,3 hPa 0,0 l/m 2 min 0 min 993 W/m 9,7 km/h (2 Bft) 97,83 %
05.06.2019 13:28 25,8 C 35,0 C 34,4 C 62 % 1008,2 hPa 0,0 l/m 2 min 0 min 996 W/m 9,7 km/h (2 Bft) 97,87 %
05.06.2019 13:30 25,9 C 32,8 C 33,3 C 60 % 1008,2 hPa 0,0 l/m 2 min 0 min 1019 W/m 9,7 km/h (2 Bft) 97,87 %
05.06.2019 13:32 26,0 C 33,9 C 33,9 C 61 % 1008,2 hPa 0,0 l/m 2 min 0 min 1037 W/m 12,9 km/h (3 Bft) 97,87 %
05.06.2019 13:34 26,1 C 33,3 C 33,3 C 62 % 1008,2 hPa 0,0 l/m 2 min 0 min 1076 W/m 6,4 km/h (2 Bft) 97,87 %
05.06.2019 13:36 26,2 C 32,2 C 33,3 C 61 % 1008,2 hPa 0,0 l/m 2 min 0 min 1082 W/m 9,7 km/h (2 Bft) 97,87 %
05.06.2019 13:38 26,2 C 32,8 C 32,8 C 62 % 1008,1 hPa 0,0 l/m 2 min 0 min 1032 W/m 9,7 km/h (2 Bft) 97,83 %
05.06.2019 13:40 26,3 C 31,7 C 32,2 C 60 % 1008,1 hPa 0,0 l/m 2 min 0 min 1004 W/m 6,4 km/h (2 Bft) 97,87 %
05.06.2019 13:42 26,4 C 32,8 C 32,8 C 65 % 1008,2 hPa 0,0 l/m 2 min 0 min 880 W/m 9,7 km/h (2 Bft) 97,87 %
05.06.2019 13:44 26,6 C 33,9 C 34,4 C 64 % 1008,1 hPa 0,0 l/m 2 min 0 min 933 W/m 9,7 km/h (2 Bft) 97,92 %
05.06.2019 13:46 26,7 C 33,9 C 33,9 C 64 % 1008,2 hPa 0,0 l/m 2 min 0 min 1054 W/m 3,2 km/h (1 Bft) 95,74 %
05.06.2019 13:48 26,8 C 33,9 C 33,3 C 63 % 1008,2 hPa 0,0 l/m 2 min 0 min 1055 W/m 9,7 km/h (2 Bft) 97,87 %
05.06.2019 13:50 26,8 C 32,8 C 32,8 C 61 % 1008,1 hPa 0,0 l/m 2 min 0 min 1055 W/m 9,7 km/h (2 Bft) 97,87 %
05.06.2019 13:52 26,8 C 31,1 C 30,6 C 60 % 1008,1 hPa 0,0 l/m 2 min 0 min 1041 W/m 12,9 km/h (3 Bft) 97,83 %
05.06.2019 13:54 26,9 C 30,0 C 30,0 C 62 % 1008,1 hPa 0,0 l/m 0 min 0 min 369 W/m 6,4 km/h (2 Bft) 100,00 %
05.06.2019 13:56 26,8 C 28,3 C 28,3 C 60 % 1008,1 hPa 0,0 l/m 0 min 0 min 316 W/m 16,1 km/h (3 Bft) 100,00 %
05.06.2019 13:58 26,7 C 25,6 C 26,7 C 58 % 1008,2 hPa 0,0 l/m 0 min 0 min 308 W/m 16,1 km/h (3 Bft) 100,00 %
05.06.2019 14:00 26,6 C 26,1 C 26,7 C 60 % 1008,1 hPa 0,0 l/m 0 min 0 min 309 W/m 6,4 km/h (2 Bft) 100,00 %
05.06.2019 14:02 26,5 C 26,7 C 26,7 C 61 % 1008,2 hPa 0,0 l/m 0 min 0 min 300 W/m 3,2 km/h (1 Bft) 100,00 %
05.06.2019 14:04 26,4 C 26,1 C 26,1 C 62 % 1008,2 hPa 0,0 l/m 0 min 0 min 284 W/m 6,4 km/h (2 Bft) 97,83 %
05.06.2019 14:06 26,3 C 26,1 C 25,6 C 61 % 1008,2 hPa 0,0 l/m 0 min 0 min 288 W/m 6,4 km/h (2 Bft) 100,00 %
05.06.2019 14:08 26,2 C 26,7 C 26,1 C 63 % 1008,1 hPa 0,0 l/m 0 min 0 min 312 W/m 3,2 km/h (1 Bft) 100,00 %
05.06.2019 14:10 26,1 C 27,2 C 26,7 C 64 % 1008,1 hPa 0,0 l/m 0 min 0 min 345 W/m 0,0 km/h (0 Bft) 100,00 %
05.06.2019 14:12 26,1 C 27,2 C 26,7 C 65 % 1008,1 hPa 0,0 l/m 0 min 0 min 360 W/m 0,0 km/h (0 Bft) 100,00 %
05.06.2019 14:14 26,0 C 27,8 C 26,7 C 65 % 1008,0 hPa 0,0 l/m 0 min 0 min 384 W/m 0,0 km/h (0 Bft) 100,00 %
05.06.2019 14:16 26,0 C 27,8 C 26,1 C 64 % 1008,1 hPa 0,0 l/m 0 min 0 min 428 W/m 3,2 km/h (1 Bft) 100,00 %
05.06.2019 14:18 25,9 C 28,9 C 26,7 C 65 % 1008,1 hPa 0,0 l/m 2 min 0 min 452 W/m 3,2 km/h (1 Bft) 100,00 %
05.06.2019 14:20 25,9 C 27,8 C 26,7 C 63 % 1008,1 hPa 0,0 l/m 2 min 0 min 448 W/m 6,4 km/h (2 Bft) 97,87 %
05.06.2019 14:22 25,8 C 28,9 C 27,8 C 63 % 1008,1 hPa 0,0 l/m 2 min 0 min 468 W/m 6,4 km/h (2 Bft) 100,00 %
05.06.2019 14:24 25,9 C 29,4 C 28,3 C 66 % 1008,1 hPa 0,0 l/m 2 min 0 min 517 W/m 3,2 km/h (1 Bft) 100,00 %
05.06.2019 14:26 25,9 C 30,0 C 29,4 C 64 % 1008,1 hPa 0,0 l/m 2 min 0 min 578 W/m 6,4 km/h (2 Bft) 100,00 %
05.06.2019 14:28 25,9 C 28,3 C 28,3 C 60 % 1008,0 hPa 0,0 l/m 2 min 0 min 526 W/m 6,4 km/h (2 Bft) 97,83 %
05.06.2019 14:30 26,0 C 30,0 C 28,9 C 61 % 1008,0 hPa 0,0 l/m 2 min 0 min 502 W/m 3,2 km/h (1 Bft) 100,00 %
05.06.2019 14:32 26,1 C 28,9 C 28,3 C 63 % 1008,0 hPa 0,0 l/m 2 min 0 min 581 W/m 6,4 km/h (2 Bft) 100,00 %
05.06.2019 14:34 26,1 C 28,9 C 28,3 C 62 % 1008,0 hPa 0,0 l/m 0 min 0 min 431 W/m 6,4 km/h (2 Bft) 100,00 %
05.06.2019 14:36 26,1 C 30,0 C 28,3 C 62 % 1008,0 hPa 0,0 l/m 2 min 0 min 658 W/m 6,4 km/h (2 Bft) 100,00 %
05.06.2019 14:38 26,2 C 30,0 C 28,3 C 65 % 1007,9 hPa 0,0 l/m 2 min 0 min 768 W/m 6,4 km/h (2 Bft) 100,00 %
05.06.2019 14:40 26,3 C 30,6 C 28,3 C 64 % 1007,8 hPa 0,0 l/m 2 min 0 min 768 W/m 6,4 km/h (2 Bft) 100,00 %
05.06.2019 14:42 26,3 C 31,1 C 28,9 C 64 % 1007,8 hPa 0,0 l/m 2 min 0 min 768 W/m 9,7 km/h (2 Bft) 100,00 %
05.06.2019 14:44 26,4 C 32,2 C 30,6 C 63 % 1007,7 hPa 0,0 l/m 2 min 0 min 999 W/m 6,4 km/h (2 Bft) 100,00 %
05.06.2019 14:46 26,6 C 33,3 C 31,7 C 67 % 1007,7 hPa 0,0 l/m 2 min 0 min 980 W/m 6,4 km/h (2 Bft) 97,87 %
05.06.2019 14:48 26,8 C 33,3 C 32,2 C 64 % 1007,5 hPa 0,0 l/m 2 min 0 min 970 W/m 9,7 km/h (2 Bft) 100,00 %
05.06.2019 14:50 27,0 C 32,2 C 31,7 C 64 % 1007,5 hPa 0,0 l/m 2 min 0 min 900 W/m 9,7 km/h (2 Bft) 100,00 %
05.06.2019 14:52 27,1 C 31,1 C 30,0 C 65 % 1007,5 hPa 0,0 l/m 2 min 0 min 864 W/m 6,4 km/h (2 Bft) 100,00 %
05.06.2019 14:54 27,2 C 31,7 C 29,4 C 65 % 1007,5 hPa 0,0 l/m 2 min 0 min 866 W/m 6,4 km/h (2 Bft) 100,00 %
05.06.2019 14:56 27,3 C 31,1 C 28,3 C 62 % 1007,5 hPa 0,0 l/m 2 min 0 min 800 W/m 3,2 km/h (1 Bft) 97,87 %
05.06.2019 14:58 27,3 C 31,1 C 27,8 C 61 % 1007,5 hPa 0,0 l/m 2 min 0 min 800 W/m 6,4 km/h (2 Bft) 97,87 %
05.06.2019 15:00 27,4 C 30,0 C 27,8 C 62 % 1007,5 hPa 0,0 l/m 2 min 0 min 537 W/m 3,2 km/h (1 Bft) 97,87 %
05.06.2019 15:02 27,4 C 29,4 C 27,2 C 63 % 1007,4 hPa 0,0 l/m 0 min 0 min 413 W/m 9,7 km/h (2 Bft) 95,74 %
05.06.2019 15:04 27,3 C 27,8 C 26,7 C 58 % 1007,3 hPa 0,0 l/m 0 min 0 min 415 W/m 9,7 km/h (2 Bft) 95,65 %
05.06.2019 15:06 27,3 C 27,8 C 26,1 C 61 % 1007,3 hPa 0,0 l/m 0 min 0 min 426 W/m 6,4 km/h (2 Bft) 97,87 %
05.06.2019 15:08 27,2 C 27,8 C 26,1 C 61 % 1007,2 hPa 0,0 l/m 0 min 0 min 420 W/m 12,9 km/h (3 Bft) 97,87 %
05.06.2019 15:10 27,2 C 28,3 C 25,6 C 63 % 1007,2 hPa 0,0 l/m 2 min 0 min 546 W/m 9,7 km/h (2 Bft) 97,87 %
05.06.2019 15:12 27,1 C 27,8 C 25,6 C 62 % 1007,2 hPa 0,0 l/m 2 min 0 min 467 W/m 9,7 km/h (2 Bft) 97,87 %
05.06.2019 15:14 27,1 C 27,8 C 25,6 C 62 % 1007,2 hPa 0,0 l/m 0 min 0 min 329 W/m 6,4 km/h (2 Bft) 97,83 %
05.06.2019 15:16 27,0 C 28,9 C 25,6 C 59 % 1007,2 hPa 0,0 l/m 2 min 0 min 883 W/m 9,7 km/h (2 Bft) 97,87 %
05.06.2019 15:18 27,0 C 30,0 C 25,6 C 61 % 1007,2 hPa 0,0 l/m 2 min 0 min 859 W/m 6,4 km/h (2 Bft) 97,87 %
05.06.2019 15:20 27,1 C 30,6 C 25,6 C 64 % 1007,1 hPa 0,0 l/m 2 min 0 min 864 W/m 6,4 km/h (2 Bft) 97,87 %
05.06.2019 15:22 27,2 C 31,1 C 26,1 C 62 % 1007,2 hPa 0,0 l/m 2 min 0 min 875 W/m 6,4 km/h (2 Bft) 93,62 %
05.06.2019 15:24 27,2 C 31,1 C 26,1 C 60 % 1007,1 hPa 0,0 l/m 2 min 0 min 861 W/m 9,7 km/h (2 Bft) 97,87 %
05.06.2019 15:26 27,3 C 31,1 C 26,1 C 61 % 1007,0 hPa 0,0 l/m 2 min 0 min 859 W/m 6,4 km/h (2 Bft) 97,83 %
05.06.2019 15:28 27,3 C 30,6 C 26,1 C 60 % 1007,0 hPa 0,0 l/m 2 min 0 min 858 W/m 9,7 km/h (2 Bft) 97,87 %
05.06.2019 15:30 27,4 C 30,6 C 26,1 C 61 % 1006,9 hPa 0,0 l/m 2 min 0 min 858 W/m 9,7 km/h (2 Bft) 97,87 %
05.06.2019 15:32 27,5 C 30,6 C 26,7 C 60 % 1006,9 hPa 0,0 l/m 2 min 0 min 851 W/m 9,7 km/h (2 Bft) 97,92 %
05.06.2019 15:34 27,6 C 30,6 C 26,7 C 61 % 1006,9 hPa 0,0 l/m 2 min 0 min 855 W/m 6,4 km/h (2 Bft) 97,87 %
05.06.2019 15:36 27,6 C 30,6 C 26,1 C 60 % 1006,9 hPa 0,0 l/m 2 min 0 min 861 W/m 9,7 km/h (2 Bft) 97,87 %
05.06.2019 15:38 27,7 C 30,6 C 26,1 C 59 % 1006,8 hPa 0,0 l/m 2 min 0 min 868 W/m 3,2 km/h (1 Bft) 95,65 %
05.06.2019 15:40 27,8 C 31,1 C 26,1 C 61 % 1006,8 hPa 0,0 l/m 2 min 0 min 870 W/m 6,4 km/h (2 Bft) 97,87 %
05.06.2019 15:42 27,9 C 31,1 C 26,1 C 61 % 1006,8 hPa 0,0 l/m 2 min 0 min 873 W/m 6,4 km/h (2 Bft) 95,74 %
05.06.2019 15:44 28,1 C 31,1 C 26,7 C 61 % 1006,8 hPa 0,0 l/m 2 min 0 min 885 W/m 6,4 km/h (2 Bft) 100,00 %
05.06.2019 15:46 28,2 C 31,1 C 26,1 C 58 % 1006,8 hPa 0,0 l/m 2 min 0 min 874 W/m 9,7 km/h (2 Bft) 100,00 %
05.06.2019 15:48 28,2 C 30,6 C 26,1 C 60 % 1006,8 hPa 0,0 l/m 2 min 0 min 853 W/m 12,9 km/h (3 Bft) 95,74 %
05.06.2019 15:50 28,3 C 30,0 C 26,1 C 58 % 1006,7 hPa 0,0 l/m 2 min 0 min 853 W/m 6,4 km/h (2 Bft) 100,00 %
05.06.2019 15:52 28,3 C 30,0 C 26,7 C 56 % 1006,7 hPa 0,0 l/m 2 min 0 min 839 W/m 9,7 km/h (2 Bft) 100,00 %
05.06.2019 15:54 28,4 C 30,0 C 26,7 C 59 % 1006,7 hPa 0,0 l/m 2 min 0 min 854 W/m 9,7 km/h (2 Bft) 100,00 %
05.06.2019 15:56 28,5 C 30,6 C 26,7 C 61 % 1006,8 hPa 0,0 l/m 2 min 0 min 828 W/m 9,7 km/h (2 Bft) 97,87 %
05.06.2019 15:58 28,6 C 28,9 C 26,1 C 58 % 1006,7 hPa 0,0 l/m 2 min 0 min 838 W/m 9,7 km/h (2 Bft) 97,87 %
05.06.2019 16:00 28,5 C 28,3 C 26,1 C 56 % 1006,7 hPa 0,0 l/m 2 min 0 min 672 W/m 16,1 km/h (3 Bft) 93,48 %
05.06.2019 16:02 28,4 C 27,8 C 26,1 C 59 % 1006,7 hPa 0,0 l/m 0 min 0 min 382 W/m 6,4 km/h (2 Bft) 93,75 %
05.06.2019 16:04 28,3 C 28,3 C 25,6 C 58 % 1006,7 hPa 0,0 l/m 0 min 0 min 383 W/m 6,4 km/h (2 Bft) 93,62 %
05.06.2019 16:06 28,2 C 27,8 C 25,6 C 57 % 1006,8 hPa 0,0 l/m 2 min 0 min 396 W/m 6,4 km/h (2 Bft) 95,74 %
05.06.2019 16:08 28,2 C 27,8 C 25,6 C 59 % 1006,7 hPa 0,0 l/m 2 min 0 min 439 W/m 12,9 km/h (3 Bft) 95,74 %
05.06.2019 16:10 28,1 C 27,8 C 25,6 C 58 % 1006,7 hPa 0,0 l/m 2 min 0 min 473 W/m 19,3 km/h (3 Bft) 95,65 %
05.06.2019 16:12 28,1 C 28,3 C 25,6 C 60 % 1006,7 hPa 0,0 l/m 2 min 0 min 746 W/m 3,2 km/h (1 Bft) 95,74 %
05.06.2019 16:14 28,1 C 28,3 C 25,6 C 60 % 1006,6 hPa 0,0 l/m 2 min 0 min 790 W/m 6,4 km/h (2 Bft) 95,74 %
05.06.2019 16:16 28,1 C 28,9 C 25,6 C 60 % 1006,6 hPa 0,0 l/m 2 min 0 min 773 W/m 12,9 km/h (3 Bft) 93,62 %
05.06.2019 16:18 28,2 C 28,3 C 26,1 C 61 % 1006,6 hPa 0,0 l/m 2 min 0 min 766 W/m 12,9 km/h (3 Bft) 95,74 %
05.06.2019 16:20 28,2 C 28,3 C 26,1 C 60 % 1006,5 hPa 0,0 l/m 2 min 0 min 778 W/m 6,4 km/h (2 Bft) 95,65 %
05.06.2019 16:22 28,2 C 28,3 C 26,1 C 62 % 1006,5 hPa 0,0 l/m 2 min 0 min 778 W/m 9,7 km/h (2 Bft) 95,74 %
05.06.2019 16:24 28,3 C 28,3 C 26,1 C 59 % 1006,4 hPa 0,0 l/m 2 min 0 min 563 W/m 9,7 km/h (2 Bft) 95,74 %
05.06.2019 16:26 28,3 C 28,3 C 26,1 C 61 % 1006,4 hPa 0,0 l/m 2 min 0 min 756 W/m 9,7 km/h (2 Bft) 93,62 %
05.06.2019 16:28 28,3 C 27,8 C 26,1 C 58 % 1006,4 hPa 0,0 l/m 2 min 0 min 738 W/m 12,9 km/h (3 Bft) 95,74 %
05.06.2019 16:30 28,3 C 27,8 C 26,1 C 59 % 1006,4 hPa 0,0 l/m 2 min 0 min 729 W/m 16,1 km/h (3 Bft) 93,62 %
05.06.2019 16:32 28,4 C 28,3 C 26,1 C 60 % 1006,4 hPa 0,0 l/m 2 min 0 min 711 W/m 12,9 km/h (3 Bft) 94,29 %
05.06.2019 16:34 28,4 C 28,3 C 26,1 C 59 % 1006,4 hPa 0,0 l/m 2 min 0 min 712 W/m 9,7 km/h (2 Bft) 95,74 %
05.06.2019 16:36 28,4 C 27,8 C 26,1 C 59 % 1006,3 hPa 0,0 l/m 2 min 0 min 706 W/m 9,7 km/h (2 Bft) 94,83 %
05.06.2019 16:38 28,4 C 28,3 C 26,1 C 58 % 1006,3 hPa 0,0 l/m 2 min 0 min 693 W/m 9,7 km/h (2 Bft) 94,29 %
05.06.2019 16:40 28,4 C 28,3 C 26,1 C 59 % 1006,3 hPa 0,0 l/m 2 min 0 min 685 W/m 9,7 km/h (2 Bft) 95,74 %
05.06.2019 16:42 28,5 C 28,3 C 26,1 C 59 % 1006,3 hPa 0,0 l/m 2 min 0 min 679 W/m 9,7 km/h (2 Bft) 93,62 %
05.06.2019 16:44 28,5 C 28,3 C 26,1 C 59 % 1006,3 hPa 0,0 l/m 2 min 0 min 683 W/m 12,9 km/h (3 Bft) 95,74 %
05.06.2019 16:46 28,6 C 28,3 C 26,1 C 57 % 1006,2 hPa 0,0 l/m 2 min 0 min 670 W/m 9,7 km/h (2 Bft) 95,74 %
05.06.2019 16:48 28,6 C 28,3 C 26,1 C 59 % 1006,2 hPa 0,0 l/m 2 min 0 min 667 W/m 19,3 km/h (3 Bft) 97,83 %
05.06.2019 16:50 28,6 C 27,8 C 26,1 C 58 % 1006,1 hPa 0,0 l/m 2 min 0 min 660 W/m 12,9 km/h (3 Bft) 97,87 %
05.06.2019 16:52 28,6 C 27,8 C 26,1 C 58 % 1006,1 hPa 0,0 l/m 2 min 0 min 656 W/m 6,4 km/h (2 Bft) 97,87 %
05.06.2019 16:54 28,6 C 27,8 C 26,1 C 57 % 1006,0 hPa 0,0 l/m 2 min 0 min 646 W/m 6,4 km/h (2 Bft) 97,87 %
05.06.2019 16:56 28,6 C 27,8 C 26,1 C 58 % 1006,1 hPa 0,0 l/m 2 min 0 min 641 W/m 6,4 km/h (2 Bft) 97,87 %
05.06.2019 16:58 28,6 C 27,8 C 26,1 C 59 % 1006,1 hPa 0,0 l/m 2 min 0 min 645 W/m 9,7 km/h (2 Bft) 97,87 %
05.06.2019 17:00 28,6 C 27,8 C 26,1 C 59 % 1006,1 hPa 0,0 l/m 2 min 0 min 638 W/m 3,2 km/h (1 Bft) 97,83 %
05.06.2019 17:02 28,6 C 27,8 C 26,1 C 59 % 1006,0 hPa 0,0 l/m 2 min 0 min 632 W/m 16,1 km/h (3 Bft) 97,87 %
05.06.2019 17:04 28,6 C 27,8 C 26,1 C 60 % 1005,9 hPa 0,0 l/m 2 min 0 min 635 W/m 9,7 km/h (2 Bft) 96,23 %
05.06.2019 17:06 28,7 C 28,3 C 26,1 C 60 % 1005,9 hPa 0,0 l/m 2 min 0 min 641 W/m 16,1 km/h (3 Bft) 100,00 %
05.06.2019 17:08 28,7 C 27,8 C 26,1 C 60 % 1006,0 hPa 0,0 l/m 2 min 0 min 638 W/m 12,9 km/h (3 Bft) 100,00 %
05.06.2019 17:10 28,7 C 28,3 C 26,1 C 60 % 1006,0 hPa 0,0 l/m 2 min 0 min 648 W/m 3,2 km/h (1 Bft) 100,00 %
05.06.2019 17:12 28,7 C 28,3 C 26,1 C 61 % 1006,0 hPa 0,0 l/m 2 min 0 min 642 W/m 6,4 km/h (2 Bft) 98,04 %
05.06.2019 17:14 28,7 C 27,8 C 26,1 C 58 % 1006,0 hPa 0,0 l/m 2 min 0 min 576 W/m 12,9 km/h (3 Bft) 100,00 %
05.06.2019 17:16 28,7 C 27,8 C 26,1 C 58 % 1006,0 hPa 0,0 l/m 2 min 0 min 644 W/m 9,7 km/h (2 Bft) 97,87 %
05.06.2019 17:18 28,7 C 27,8 C 26,1 C 58 % 1006,0 hPa 0,0 l/m 2 min 0 min 624 W/m 9,7 km/h (2 Bft) 97,87 %
05.06.2019 17:20 28,7 C 27,8 C 26,1 C 60 % 1005,9 hPa 0,0 l/m 2 min 0 min 608 W/m 9,7 km/h (2 Bft) 100,00 %
05.06.2019 17:22 28,7 C 28,3 C 26,1 C 62 % 1005,9 hPa 0,0 l/m 2 min 0 min 593 W/m 6,4 km/h (2 Bft) 97,83 %
05.06.2019 17:24 28,7 C 28,3 C 26,1 C 62 % 1005,8 hPa 0,0 l/m 2 min 0 min 588 W/m 9,7 km/h (2 Bft) 100,00 %
05.06.2019 17:26 28,7 C 28,3 C 26,1 C 59 % 1005,8 hPa 0,0 l/m 2 min 0 min 587 W/m 9,7 km/h (2 Bft) 100,00 %
05.06.2019 17:28 28,7 C 28,3 C 26,1 C 61 % 1005,7 hPa 0,0 l/m 2 min 0 min 582 W/m 6,4 km/h (2 Bft) 100,00 %
05.06.2019 17:30 28,7 C 28,3 C 26,1 C 59 % 1005,6 hPa 0,0 l/m 2 min 0 min 599 W/m 9,7 km/h (2 Bft) 100,00 %
05.06.2019 17:32 28,7 C 28,3 C 26,1 C 58 % 1005,7 hPa 0,0 l/m 2 min 0 min 613 W/m 16,1 km/h (3 Bft) 100,00 %
05.06.2019 17:34 28,8 C 28,3 C 26,1 C 60 % 1005,6 hPa 0,0 l/m 2 min 0 min 416 W/m 9,7 km/h (2 Bft) 97,87 %
05.06.2019 17:36 28,8 C 28,3 C 26,1 C 58 % 1005,5 hPa 0,0 l/m 2 min 0 min 376 W/m 9,7 km/h (2 Bft) 100,00 %
05.06.2019 17:38 28,8 C 28,9 C 26,7 C 61 % 1005,5 hPa 0,0 l/m 2 min 0 min 469 W/m 6,4 km/h (2 Bft) 100,00 %
05.06.2019 17:40 28,8 C 28,9 C 26,7 C 59 % 1005,5 hPa 0,0 l/m 2 min 0 min 571 W/m 16,1 km/h (3 Bft) 97,87 %
05.06.2019 17:42 28,8 C 28,9 C 26,7 C 59 % 1005,5 hPa 0,0 l/m 2 min 0 min 479 W/m 9,7 km/h (2 Bft) 97,83 %
05.06.2019 17:44 28,8 C 28,3 C 26,7 C 59 % 1005,5 hPa 0,0 l/m 2 min 0 min 668 W/m 9,7 km/h (2 Bft) 97,87 %
05.06.2019 17:46 28,7 C 28,3 C 26,7 C 60 % 1005,5 hPa 0,0 l/m 2 min 0 min 382 W/m 9,7 km/h (2 Bft) 97,87 %
05.06.2019 17:48 28,7 C 27,8 C 26,1 C 59 % 1005,5 hPa 0,0 l/m 2 min 0 min 352 W/m 6,4 km/h (2 Bft) 97,87 %
05.06.2019 17:50 28,6 C 27,8 C 26,1 C 60 % 1005,4 hPa 0,0 l/m 2 min 0 min 469 W/m 6,4 km/h (2 Bft) 97,87 %
05.06.2019 17:52 28,5 C 28,3 C 26,7 C 59 % 1005,4 hPa 0,0 l/m 2 min 0 min 494 W/m 9,7 km/h (2 Bft) 97,87 %
05.06.2019 17:54 28,5 C 28,3 C 26,7 C 59 % 1005,4 hPa 0,0 l/m 2 min 0 min 643 W/m 6,4 km/h (2 Bft) 97,87 %
05.06.2019 17:56 28,5 C 28,9 C 26,7 C 61 % 1005,3 hPa 0,0 l/m 2 min 0 min 653 W/m 6,4 km/h (2 Bft) 97,83 %
05.06.2019 17:58 28,5 C 28,3 C 27,2 C 59 % 1005,3 hPa 0,0 l/m 2 min 0 min 597 W/m 9,7 km/h (2 Bft) 95,74 %
05.06.2019 18:00 28,5 C 28,9 C 26,7 C 61 % 1005,3 hPa 0,0 l/m 2 min 0 min 596 W/m 9,7 km/h (2 Bft) 97,87 %
05.06.2019 18:02 28,6 C 28,9 C 26,7 C 60 % 1005,2 hPa 0,0 l/m 2 min 0 min 536 W/m 9,7 km/h (2 Bft) 97,14 %
05.06.2019 18:04 28,6 C 28,9 C 26,7 C 61 % 1005,2 hPa 0,0 l/m 2 min 0 min 551 W/m 6,4 km/h (2 Bft) 97,87 %
05.06.2019 18:08 28,6 C 28,3 C 26,7 C 60 % 1005,1 hPa 0,0 l/m 4 min 0 min 638 W/m 12,9 km/h (3 Bft) 97,87 %
05.06.2019 18:10 28,6 C 28,3 C 26,7 C 58 % 1005,1 hPa 0,0 l/m 2 min 0 min 592 W/m 12,9 km/h (3 Bft) 97,83 %
05.06.2019 18:12 28,6 C 28,9 C 26,7 C 60 % 1005,1 hPa 0,0 l/m 2 min 0 min 577 W/m 6,4 km/h (2 Bft) 97,87 %
05.06.2019 18:14 28,6 C 28,9 C 26,7 C 60 % 1005,1 hPa 0,0 l/m 2 min 0 min 545 W/m 6,4 km/h (2 Bft) 97,87 %
05.06.2019 18:16 28,6 C 28,9 C 26,7 C 61 % 1005,1 hPa 0,0 l/m 2 min 0 min 542 W/m 6,4 km/h (2 Bft) 97,87 %
05.06.2019 18:18 28,6 C 28,9 C 26,7 C 60 % 1005,1 hPa 0,0 l/m 2 min 0 min 501 W/m 3,2 km/h (1 Bft) 97,87 %
05.06.2019 18:20 28,7 C 28,9 C 26,7 C 61 % 1005,0 hPa 0,0 l/m 2 min 0 min 490 W/m 6,4 km/h (2 Bft) 95,74 %
05.06.2019 18:22 28,7 C 28,9 C 26,1 C 61 % 1005,0 hPa 0,0 l/m 2 min 0 min 483 W/m 6,4 km/h (2 Bft) 95,65 %
05.06.2019 18:24 28,7 C 28,9 C 26,1 C 60 % 1004,9 hPa 0,0 l/m 2 min 0 min 459 W/m 6,4 km/h (2 Bft) 100,00 %
05.06.2019 18:26 28,7 C 28,3 C 26,1 C 61 % 1004,9 hPa 0,0 l/m 2 min 0 min 468 W/m 6,4 km/h (2 Bft) 100,00 %
05.06.2019 18:28 28,7 C 28,3 C 26,1 C 59 % 1004,9 hPa 0,0 l/m 2 min 0 min 458 W/m 9,7 km/h (2 Bft) 100,00 %
05.06.2019 18:30 28,7 C 27,8 C 26,1 C 60 % 1004,9 hPa 0,0 l/m 2 min 0 min 449 W/m 9,7 km/h (2 Bft) 100,00 %
05.06.2019 18:32 28,6 C 27,8 C 26,1 C 59 % 1004,8 hPa 0,0 l/m 2 min 0 min 407 W/m 9,7 km/h (2 Bft) 100,00 %
05.06.2019 18:34 28,5 C 27,8 C 25,6 C 59 % 1004,8 hPa 0,0 l/m 2 min 0 min 363 W/m 6,4 km/h (2 Bft) 97,83 %
05.06.2019 18:36 28,4 C 27,8 C 25,6 C 60 % 1004,9 hPa 0,0 l/m 2 min 0 min 368 W/m 6,4 km/h (2 Bft) 96,61 %
05.06.2019 18:38 28,4 C 27,2 C 25,6 C 60 % 1004,9 hPa 0,0 l/m 2 min 0 min 380 W/m 9,7 km/h (2 Bft) 100,00 %
05.06.2019 18:40 28,3 C 27,2 C 25,6 C 60 % 1004,8 hPa 0,0 l/m 2 min 0 min 391 W/m 9,7 km/h (2 Bft) 100,00 %
05.06.2019 18:42 28,3 C 27,2 C 25,0 C 61 % 1004,8 hPa 0,0 l/m 2 min 0 min 403 W/m 9,7 km/h (2 Bft) 100,00 %
05.06.2019 18:44 28,3 C 27,2 C 25,6 C 60 % 1004,8 hPa 0,0 l/m 2 min 0 min 419 W/m 9,7 km/h (2 Bft) 97,83 %
05.06.2019 18:46 28,2 C 27,8 C 26,1 C 61 % 1004,7 hPa 0,0 l/m 2 min 0 min 428 W/m 6,4 km/h (2 Bft) 97,87 %
05.06.2019 18:48 28,2 C 27,2 C 25,6 C 60 % 1004,7 hPa 0,0 l/m 2 min 0 min 264 W/m 9,7 km/h (2 Bft) 100,00 %
05.06.2019 18:50 28,2 C 27,2 C 25,6 C 61 % 1004,7 hPa 0,0 l/m 0 min 0 min 168 W/m 6,4 km/h (2 Bft) 100,00 %
05.06.2019 18:52 28,1 C 26,7 C 25,6 C 61 % 1004,6 hPa 0,0 l/m 0 min 0 min 166 W/m 6,4 km/h (2 Bft) 95,74 %
05.06.2019 18:54 28,1 C 26,7 C 25,0 C 61 % 1004,4 hPa 0,0 l/m 0 min 0 min 175 W/m 12,9 km/h (3 Bft) 95,74 %
05.06.2019 18:56 27,9 C 27,2 C 25,0 C 61 % 1004,4 hPa 0,0 l/m 2 min 0 min 356 W/m 19,3 km/h (3 Bft) 95,65 %
05.06.2019 18:58 27,9 C 27,2 C 25,6 C 60 % 1004,4 hPa 0,0 l/m 2 min 0 min 407 W/m 12,9 km/h (3 Bft) 97,87 %
05.06.2019 19:00 27,8 C 27,2 C 25,6 C 61 % 1004,4 hPa 0,0 l/m 2 min 0 min 385 W/m 6,4 km/h (2 Bft) 97,87 %
05.06.2019 19:02 27,8 C 27,2 C 25,6 C 61 % 1004,4 hPa 0,0 l/m 2 min 0 min 363 W/m 6,4 km/h (2 Bft) 97,87 %
05.06.2019 19:04 27,8 C 27,8 C 25,6 C 62 % 1004,4 hPa 0,0 l/m 2 min 0 min 396 W/m 6,4 km/h (2 Bft) 97,87 %
05.06.2019 19:06 27,8 C 27,8 C 25,6 C 62 % 1004,3 hPa 0,0 l/m 2 min 0 min 405 W/m 9,7 km/h (2 Bft) 98,28 %
05.06.2019 19:08 27,8 C 27,8 C 25,6 C 62 % 1004,3 hPa 0,0 l/m 2 min 0 min 379 W/m 6,4 km/h (2 Bft) 97,87 %
05.06.2019 19:10 27,7 C 27,2 C 25,6 C 61 % 1004,3 hPa 0,0 l/m 2 min 0 min 383 W/m 9,7 km/h (2 Bft) 97,14 %
05.06.2019 19:12 27,7 C 27,2 C 25,6 C 62 % 1004,4 hPa 0,0 l/m 2 min 0 min 371 W/m 6,4 km/h (2 Bft) 97,87 %
05.06.2019 19:14 27,7 C 27,8 C 25,6 C 62 % 1004,3 hPa 0,0 l/m 2 min 0 min 347 W/m 6,4 km/h (2 Bft) 97,87 %
05.06.2019 19:16 27,7 C 27,8 C 25,0 C 62 % 1004,3 hPa 0,0 l/m 2 min 0 min 324 W/m 6,4 km/h (2 Bft) 97,87 %
05.06.2019 19:18 27,7 C 27,2 C 25,0 C 61 % 1004,2 hPa 0,0 l/m 2 min 0 min 320 W/m 16,1 km/h (3 Bft) 97,87 %
05.06.2019 19:20 27,7 C 27,2 C 24,4 C 62 % 1004,3 hPa 0,0 l/m 2 min 0 min 278 W/m 6,4 km/h (2 Bft) 95,65 %
05.06.2019 19:22 27,7 C 27,2 C 24,4 C 62 % 1004,3 hPa 0,0 l/m 2 min 0 min 302 W/m 9,7 km/h (2 Bft) 95,74 %
05.06.2019 19:24 27,6 C 27,2 C 24,4 C 63 % 1004,3 hPa 0,0 l/m 2 min 0 min 301 W/m 9,7 km/h (2 Bft) 93,62 %
05.06.2019 19:26 27,6 C 26,7 C 24,4 C 63 % 1004,3 hPa 0,0 l/m 2 min 0 min 294 W/m 6,4 km/h (2 Bft) 97,87 %
05.06.2019 19:28 27,5 C 26,7 C 24,4 C 62 % 1004,3 hPa 0,0 l/m 2 min 0 min 216 W/m 12,9 km/h (3 Bft) 97,87 %
05.06.2019 19:30 27,4 C 26,1 C 23,9 C 62 % 1004,3 hPa 0,0 l/m 0 min 0 min 135 W/m 16,1 km/h (3 Bft) 97,87 %
05.06.2019 19:32 27,2 C 25,6 C 23,9 C 63 % 1004,2 hPa 0,0 l/m 0 min 0 min 117 W/m 12,9 km/h (3 Bft) 93,48 %
05.06.2019 19:34 27,1 C 25,6 C 23,9 C 63 % 1004,3 hPa 0,0 l/m 0 min 0 min 112 W/m 9,7 km/h (2 Bft) 95,74 %
05.06.2019 19:36 27,1 C 25,6 C 23,9 C 63 % 1004,2 hPa 0,0 l/m 0 min 0 min 113 W/m 19,3 km/h (3 Bft) 97,87 %
05.06.2019 19:38 26,9 C 25,0 C 23,3 C 63 % 1004,2 hPa 0,0 l/m 2 min 0 min 162 W/m 16,1 km/h (3 Bft) 97,87 %
05.06.2019 19:40 26,8 C 25,0 C 23,3 C 64 % 1004,3 hPa 0,0 l/m 0 min 0 min 133 W/m 6,4 km/h (2 Bft) 97,87 %
05.06.2019 19:42 26,7 C 24,4 C 23,3 C 63 % 1004,3 hPa 0,0 l/m 2 min 0 min 159 W/m 12,9 km/h (3 Bft) 97,87 %
05.06.2019 19:44 26,6 C 24,4 C 23,3 C 64 % 1004,2 hPa 0,0 l/m 0 min 0 min 114 W/m 9,7 km/h (2 Bft) 97,83 %
05.06.2019 19:46 26,4 C 24,4 C 22,8 C 65 % 1004,3 hPa 0,0 l/m 0 min 0 min 90 W/m 9,7 km/h (2 Bft) 97,87 %
05.06.2019 19:48 26,3 C 23,9 C 22,8 C 65 % 1004,3 hPa 0,0 l/m 0 min 0 min 80 W/m 6,4 km/h (2 Bft) 97,87 %
05.06.2019 19:50 26,2 C 23,9 C 22,8 C 65 % 1004,3 hPa 0,0 l/m 0 min 0 min 75 W/m 6,4 km/h (2 Bft) 97,87 %
05.06.2019 19:52 26,1 C 23,9 C 22,8 C 66 % 1004,2 hPa 0,0 l/m 0 min 0 min 77 W/m 6,4 km/h (2 Bft) 97,87 %
05.06.2019 19:54 25,9 C 23,3 C 22,2 C 66 % 1004,2 hPa 0,0 l/m 0 min 0 min 72 W/m 12,9 km/h (3 Bft) 97,83 %
05.06.2019 19:56 25,7 C 23,3 C 22,2 C 66 % 1004,1 hPa 0,0 l/m 0 min 0 min 62 W/m 6,4 km/h (2 Bft) 100,00 %
05.06.2019 19:58 25,6 C 23,3 C 22,2 C 67 % 1004,0 hPa 0,0 l/m 0 min 0 min 50 W/m 6,4 km/h (2 Bft) 97,87 %
05.06.2019 20:00 25,5 C 23,3 C 22,2 C 66 % 1004,0 hPa 0,0 l/m 0 min 0 min 44 W/m 12,9 km/h (3 Bft) 95,74 %
05.06.2019 20:02 25,4 C 22,8 C 22,2 C 67 % 1004,0 hPa 0,0 l/m 0 min 0 min 39 W/m 9,7 km/h (2 Bft) 97,87 %
05.06.2019 20:04 25,2 C 22,8 C 21,7 C 67 % 1004,0 hPa 0,0 l/m 0 min 0 min 40 W/m 6,4 km/h (2 Bft) 97,87 %
05.06.2019 20:06 25,1 C 22,8 C 21,7 C 68 % 1004,0 hPa 0,0 l/m 0 min 0 min 42 W/m 6,4 km/h (2 Bft) 97,83 %
05.06.2019 20:08 25,0 C 22,8 C 21,7 C 68 % 1004,0 hPa 0,0 l/m 0 min 0 min 44 W/m 9,7 km/h (2 Bft) 97,87 %
05.06.2019 20:10 24,9 C 22,8 C 21,7 C 68 % 1003,9 hPa 0,0 l/m 0 min 0 min 42 W/m 3,2 km/h (1 Bft) 97,87 %
05.06.2019 20:12 24,8 C 22,8 C 21,7 C 68 % 1003,9 hPa 0,0 l/m 0 min 0 min 40 W/m 16,1 km/h (3 Bft) 97,87 %
05.06.2019 20:14 24,8 C 22,8 C 21,7 C 68 % 1003,9 hPa 0,0 l/m 0 min 0 min 39 W/m 6,4 km/h (2 Bft) 97,87 %
05.06.2019 20:16 24,7 C 22,8 C 21,7 C 68 % 1003,9 hPa 0,0 l/m 0 min 0 min 38 W/m 16,1 km/h (3 Bft) 95,74 %
05.06.2019 20:18 24,6 C 22,8 C 21,7 C 69 % 1003,9 hPa 0,0 l/m 0 min 0 min 37 W/m 12,9 km/h (3 Bft) 97,83 %
05.06.2019 20:20 24,4 C 22,8 C 21,7 C 69 % 1003,9 hPa 0,0 l/m 0 min 0 min 34 W/m 12,9 km/h (3 Bft) 93,62 %
05.06.2019 20:22 24,4 C 22,8 C 21,7 C 69 % 1003,9 hPa 0,0 l/m 0 min 0 min 30 W/m 19,3 km/h (3 Bft) 95,74 %
05.06.2019 20:24 24,3 C 22,2 C 21,7 C 69 % 1003,8 hPa 0,0 l/m 0 min 0 min 26 W/m 6,4 km/h (2 Bft) 95,74 %
05.06.2019 20:26 24,2 C 22,2 C 21,7 C 70 % 1003,8 hPa 0,0 l/m 0 min 0 min 25 W/m 12,9 km/h (3 Bft) 95,74 %
05.06.2019 20:28 24,1 C 22,2 C 21,7 C 71 % 1003,8 hPa 0,0 l/m 0 min 0 min 25 W/m 3,2 km/h (1 Bft) 95,74 %
05.06.2019 20:30 24,1 C 22,2 C 21,7 C 71 % 1003,7 hPa 0,0 l/m 0 min 0 min 26 W/m 9,7 km/h (2 Bft) 95,65 %
05.06.2019 20:32 23,9 C 22,2 C 21,7 C 71 % 1003,7 hPa 0,0 l/m 0 min 0 min 26 W/m 9,7 km/h (2 Bft) 91,49 %
05.06.2019 20:34 23,9 C 22,2 C 21,7 C 71 % 1003,7 hPa 0,0 l/m 0 min 0 min 27 W/m 9,7 km/h (2 Bft) 95,74 %
05.06.2019 20:36 23,8 C 22,2 C 21,1 C 71 % 1003,7 hPa 0,0 l/m 0 min 0 min 29 W/m 12,9 km/h (3 Bft) 94,92 %
05.06.2019 20:38 23,7 C 22,2 C 21,1 C 72 % 1003,6 hPa 0,0 l/m 0 min 0 min 29 W/m 6,4 km/h (2 Bft) 94,29 %
05.06.2019 20:40 23,7 C 21,7 C 21,1 C 72 % 1003,4 hPa 0,0 l/m 0 min 0 min 27 W/m 9,7 km/h (2 Bft) 95,74 %
05.06.2019 20:42 23,6 C 21,7 C 21,1 C 72 % 1003,4 hPa 0,0 l/m 0 min 0 min 26 W/m 6,4 km/h (2 Bft) 93,48 %
05.06.2019 20:44 23,5 C 21,7 C 21,1 C 72 % 1003,3 hPa 0,0 l/m 0 min 0 min 26 W/m 9,7 km/h (2 Bft) 95,74 %
05.06.2019 20:46 23,4 C 21,7 C 21,1 C 72 % 1003,3 hPa 0,0 l/m 0 min 0 min 25 W/m 6,4 km/h (2 Bft) 95,74 %
05.06.2019 20:48 23,4 C 21,7 C 21,1 C 72 % 1003,3 hPa 0,0 l/m 0 min 0 min 25 W/m 6,4 km/h (2 Bft) 95,74 %
05.06.2019 20:50 23,3 C 21,7 C 21,1 C 73 % 1003,2 hPa 0,0 l/m 0 min 0 min 25 W/m 6,4 km/h (2 Bft) 95,74 %
05.06.2019 20:52 23,3 C 21,7 C 21,1 C 73 % 1003,2 hPa 0,0 l/m 0 min 0 min 25 W/m 6,4 km/h (2 Bft) 95,74 %
05.06.2019 20:54 23,2 C 21,7 C 21,1 C 73 % 1003,1 hPa 0,0 l/m 0 min 0 min 24 W/m 16,1 km/h (3 Bft) 97,83 %
05.06.2019 20:56 23,2 C 21,7 C 21,1 C 73 % 1003,1 hPa 0,0 l/m 0 min 0 min 22 W/m 6,4 km/h (2 Bft) 93,62 %
05.06.2019 20:58 23,1 C 21,7 C 21,1 C 74 % 1003,0 hPa 0,0 l/m 0 min 0 min 20 W/m 6,4 km/h (2 Bft) 97,87 %
05.06.2019 21:00 23,1 C 21,7 C 21,1 C 74 % 1002,9 hPa 0,0 l/m 0 min 0 min 18 W/m 9,7 km/h (2 Bft) 100,00 %
05.06.2019 21:02 23,0 C 21,7 C 21,1 C 74 % 1003,0 hPa 0,0 l/m 0 min 0 min 16 W/m 12,9 km/h (3 Bft) 97,87 %
05.06.2019 21:04 22,9 C 21,1 C 21,1 C 74 % 1003,0 hPa 0,0 l/m 0 min 0 min 14 W/m 3,2 km/h (1 Bft) 100,00 %
05.06.2019 21:06 22,9 C 21,1 C 20,6 C 74 % 1003,0 hPa 0,0 l/m 0 min 0 min 12 W/m 12,9 km/h (3 Bft) 95,65 %
05.06.2019 21:08 22,8 C 21,1 C 20,6 C 74 % 1002,9 hPa 0,0 l/m 0 min 0 min 12 W/m 3,2 km/h (1 Bft) 100,00 %
05.06.2019 21:10 22,8 C 21,1 C 20,6 C 74 % 1003,0 hPa 0,0 l/m 0 min 0 min 11 W/m 12,9 km/h (3 Bft) 100,00 %
05.06.2019 21:12 22,8 C 21,1 C 20,6 C 74 % 1002,9 hPa 0,0 l/m 0 min 0 min 11 W/m 6,4 km/h (2 Bft) 97,87 %
05.06.2019 21:14 22,8 C 21,1 C 20,6 C 75 % 1002,8 hPa 0,0 l/m 0 min 0 min 11 W/m 6,4 km/h (2 Bft) 100,00 %
05.06.2019 21:16 22,7 C 21,1 C 20,6 C 75 % 1002,9 hPa 0,0 l/m 0 min 0 min 10 W/m 6,4 km/h (2 Bft) 100,00 %
05.06.2019 21:18 22,7 C 21,1 C 20,6 C 75 % 1002,9 hPa 0,0 l/m 0 min 0 min 9 W/m 6,4 km/h (2 Bft) 100,00 %
05.06.2019 21:20 22,7 C 21,1 C 20,6 C 75 % 1002,9 hPa 0,0 l/m 0 min 0 min 7 W/m 6,4 km/h (2 Bft) 100,00 %
05.06.2019 21:22 22,6 C 21,1 C 20,6 C 75 % 1002,9 hPa 0,0 l/m 0 min 0 min 5 W/m 9,7 km/h (2 Bft) 97,87 %
05.06.2019 21:25 22,6 C 21,1 C 20,6 C 75 % 1002,9 hPa 0,0 l/m 0 min 0 min 4 W/m 9,7 km/h (2 Bft) 100,00 %
05.06.2019 21:30 22,5 C 21,1 C 20,6 C 76 % 1002,8 hPa 0,0 l/m 0 min 0 min 0 W/m 3,2 km/h (1 Bft) 100,00 %
05.06.2019 21:32 22,5 C 21,1 C 20,6 C 76 % 1002,8 hPa 0,0 l/m 0 min 0 min 0 W/m 6,4 km/h (2 Bft) 98,31 %
05.06.2019 21:34 22,4 C 21,1 C 20,6 C 76 % 1002,7 hPa 0,0 l/m 0 min 0 min 0 W/m 6,4 km/h (2 Bft) 100,00 %
05.06.2019 21:36 22,4 C 21,1 C 20,0 C 76 % 1002,6 hPa 0,0 l/m 0 min 0 min 0 W/m 6,4 km/h (2 Bft) 100,00 %
05.06.2019 21:38 22,4 C 20,6 C 20,0 C 77 % 1002,6 hPa 0,0 l/m 0 min 0 min 0 W/m 6,4 km/h (2 Bft) 100,00 %
05.06.2019 21:40 22,3 C 20,6 C 20,0 C 77 % 1002,6 hPa 0,0 l/m 0 min 0 min 0 W/m 6,4 km/h (2 Bft) 100,00 %
05.06.2019 21:42 22,3 C 20,6 C 20,0 C 77 % 1002,5 hPa 0,0 l/m 0 min 0 min 0 W/m 3,2 km/h (1 Bft) 100,00 %
05.06.2019 21:44 22,3 C 20,6 C 20,0 C 77 % 1002,6 hPa 0,0 l/m 0 min 0 min 0 W/m 6,4 km/h (2 Bft) 100,00 %
05.06.2019 21:46 22,3 C 20,6 C 20,0 C 77 % 1002,6 hPa 0,0 l/m 0 min 0 min 0 W/m 3,2 km/h (1 Bft) 97,87 %
05.06.2019 21:48 22,2 C 20,6 C 20,0 C 77 % 1002,6 hPa 0,0 l/m 0 min 0 min 0 W/m 9,7 km/h (2 Bft) 97,37 %
05.06.2019 21:50 22,2 C 20,6 C 20,0 C 77 % 1002,6 hPa 0,0 l/m 0 min 0 min 0 W/m 6,4 km/h (2 Bft) 97,96 %
05.06.2019 21:52 22,2 C 20,6 C 20,0 C 77 % 1002,7 hPa 0,0 l/m 0 min 0 min 0 W/m 6,4 km/h (2 Bft) 100,00 %
05.06.2019 21:54 22,2 C 20,6 C 20,0 C 78 % 1002,6 hPa 0,0 l/m 0 min 0 min 0 W/m 6,4 km/h (2 Bft) 100,00 %
05.06.2019 21:56 22,1 C 20,6 C 20,0 C 78 % 1002,6 hPa 0,0 l/m 0 min 0 min 0 W/m 6,4 km/h (2 Bft) 98,15 %
05.06.2019 21:58 22,1 C 20,6 C 20,0 C 77 % 1002,6 hPa 0,0 l/m 0 min 0 min 0 W/m 6,4 km/h (2 Bft) 97,87 %
05.06.2019 22:00 22,1 C 20,6 C 20,0 C 77 % 1002,7 hPa 0,0 l/m 0 min 0 min 0 W/m 9,7 km/h (2 Bft) 97,37 %
05.06.2019 22:02 22,1 C 20,6 C 20,0 C 78 % 1002,6 hPa 0,0 l/m 0 min 0 min 0 W/m 6,4 km/h (2 Bft) 100,00 %
05.06.2019 22:04 22,0 C 20,6 C 20,0 C 78 % 1002,5 hPa 0,0 l/m 0 min 0 min 0 W/m 9,7 km/h (2 Bft) 97,96 %
05.06.2019 22:06 22,0 C 20,6 C 20,0 C 78 % 1002,5 hPa 0,0 l/m 0 min 0 min 0 W/m 12,9 km/h (3 Bft) 100,00 %
05.06.2019 22:08 21,9 C 20,6 C 20,0 C 78 % 1002,5 hPa 0,0 l/m 0 min 0 min 0 W/m 6,4 km/h (2 Bft) 95,74 %
05.06.2019 22:10 21,9 C 20,6 C 20,0 C 78 % 1002,5 hPa 0,0 l/m 0 min 0 min 0 W/m 9,7 km/h (2 Bft) 97,87 %
05.06.2019 22:12 21,9 C 20,6 C 20,0 C 78 % 1002,5 hPa 0,0 l/m 0 min 0 min 0 W/m 6,4 km/h (2 Bft) 97,87 %
05.06.2019 22:14 21,9 C 20,6 C 20,0 C 78 % 1002,4 hPa 0,0 l/m 0 min 0 min 0 W/m 3,2 km/h (1 Bft) 98,15 %
05.06.2019 22:16 21,9 C 20,6 C 19,4 C 78 % 1002,3 hPa 0,0 l/m 0 min 0 min 0 W/m 9,7 km/h (2 Bft) 97,87 %
05.06.2019 22:18 21,8 C 20,0 C 19,4 C 79 % 1002,3 hPa 0,0 l/m 0 min 0 min 0 W/m 3,2 km/h (1 Bft) 97,83 %
05.06.2019 22:20 21,8 C 20,0 C 19,4 C 79 % 1002,2 hPa 0,0 l/m 0 min 0 min 0 W/m 3,2 km/h (1 Bft) 97,37 %
05.06.2019 22:22 21,8 C 20,0 C 19,4 C 79 % 1002,1 hPa 0,0 l/m 0 min 0 min 0 W/m 6,4 km/h (2 Bft) 97,87 %
05.06.2019 22:24 21,8 C 20,0 C 19,4 C 79 % 1002,1 hPa 0,0 l/m 0 min 0 min 0 W/m 16,1 km/h (3 Bft) 97,87 %
05.06.2019 22:26 21,7 C 20,0 C 19,4 C 79 % 1002,0 hPa 0,0 l/m 0 min 0 min 0 W/m 9,7 km/h (2 Bft) 95,74 %
05.06.2019 22:28 21,7 C 20,0 C 19,4 C 79 % 1001,9 hPa 0,0 l/m 0 min 0 min 0 W/m 12,9 km/h (3 Bft) 97,87 %
05.06.2019 22:30 21,7 C 20,0 C 19,4 C 79 % 1001,9 hPa 0,0 l/m 0 min 0 min 0 W/m 6,4 km/h (2 Bft) 97,87 %
05.06.2019 22:32 21,7 C 20,0 C 19,4 C 79 % 1002,0 hPa 0,0 l/m 0 min 0 min 0 W/m 6,4 km/h (2 Bft) 97,83 %
05.06.2019 22:34 21,6 C 20,0 C 19,4 C 79 % 1001,9 hPa 0,0 l/m 0 min 0 min 0 W/m 12,9 km/h (3 Bft) 97,87 %
05.06.2019 22:36 21,6 C 20,0 C 19,4 C 79 % 1001,8 hPa 0,0 l/m 0 min 0 min 0 W/m 9,7 km/h (2 Bft) 97,96 %
05.06.2019 22:38 21,6 C 20,0 C 19,4 C 79 % 1001,9 hPa 0,0 l/m 0 min 0 min 0 W/m 6,4 km/h (2 Bft) 95,74 %
05.06.2019 22:40 21,5 C 20,0 C 19,4 C 79 % 1001,7 hPa 0,0 l/m 0 min 0 min 0 W/m 9,7 km/h (2 Bft) 97,87 %
05.06.2019 22:42 21,5 C 20,0 C 19,4 C 79 % 1001,7 hPa 0,0 l/m 0 min 0 min 0 W/m 3,2 km/h (1 Bft) 96,23 %
05.06.2019 22:44 21,5 C 20,0 C 19,4 C 79 % 1001,6 hPa 0,0 l/m 0 min 0 min 0 W/m 3,2 km/h (1 Bft) 97,37 %
05.06.2019 22:46 21,4 C 20,0 C 19,4 C 79 % 1001,6 hPa 0,0 l/m 0 min 0 min 0 W/m 9,7 km/h (2 Bft) 97,87 %
05.06.2019 22:48 21,4 C 20,0 C 19,4 C 80 % 1001,6 hPa 0,0 l/m 0 min 0 min 0 W/m 12,9 km/h (3 Bft) 97,87 %
05.06.2019 22:50 21,4 C 20,0 C 19,4 C 80 % 1001,6 hPa 0,0 l/m 0 min 0 min 0 W/m 6,4 km/h (2 Bft) 97,87 %
05.06.2019 22:52 21,4 C 20,0 C 19,4 C 80 % 1001,6 hPa 0,0 l/m 0 min 0 min 0 W/m 6,4 km/h (2 Bft) 95,74 %
05.06.2019 22:54 21,4 C 20,0 C 19,4 C 80 % 1001,6 hPa 0,0 l/m 0 min 0 min 0 W/m 12,9 km/h (3 Bft) 100,00 %
05.06.2019 22:56 21,4 C 20,0 C 19,4 C 80 % 1001,5 hPa 0,0 l/m 0 min 0 min 0 W/m 3,2 km/h (1 Bft) 100,00 %
05.06.2019 22:58 21,3 C 20,0 C 19,4 C 80 % 1001,6 hPa 0,0 l/m 0 min 0 min 0 W/m 6,4 km/h (2 Bft) 97,87 %
05.06.2019 23:00 21,3 C 20,0 C 19,4 C 80 % 1001,6 hPa 0,0 l/m 0 min 0 min 0 W/m 6,4 km/h (2 Bft) 97,87 %
05.06.2019 23:02 21,3 C 20,0 C 19,4 C 80 % 1001,6 hPa 0,0 l/m 0 min 0 min 0 W/m 6,4 km/h (2 Bft) 95,74 %
05.06.2019 23:04 21,3 C 20,0 C 19,4 C 80 % 1001,6 hPa 0,0 l/m 0 min 0 min 0 W/m 9,7 km/h (2 Bft) 97,87 %
05.06.2019 23:06 21,3 C 20,0 C 19,4 C 80 % 1001,7 hPa 0,0 l/m 0 min 0 min 0 W/m 3,2 km/h (1 Bft) 98,28 %
05.06.2019 23:08 21,2 C 20,0 C 19,4 C 80 % 1001,6 hPa 0,0 l/m 0 min 0 min 0 W/m 6,4 km/h (2 Bft) 97,14 %
05.06.2019 23:10 21,2 C 20,0 C 19,4 C 80 % 1001,7 hPa 0,0 l/m 0 min 0 min 0 W/m 9,7 km/h (2 Bft) 97,87 %
05.06.2019 23:12 21,2 C 20,0 C 19,4 C 80 % 1001,7 hPa 0,0 l/m 0 min 0 min 0 W/m 3,2 km/h (1 Bft) 97,87 %
05.06.2019 23:14 21,2 C 20,0 C 19,4 C 80 % 1001,7 hPa 0,0 l/m 0 min 0 min 0 W/m 6,4 km/h (2 Bft) 95,74 %
05.06.2019 23:16 21,2 C 19,4 C 19,4 C 80 % 1001,7 hPa 0,0 l/m 0 min 0 min 0 W/m 3,2 km/h (1 Bft) 97,87 %
05.06.2019 23:18 21,1 C 19,4 C 18,9 C 80 % 1001,7 hPa 0,0 l/m 0 min 0 min 0 W/m 3,2 km/h (1 Bft) 97,83 %
05.06.2019 23:20 21,1 C 19,4 C 18,9 C 80 % 1001,8 hPa 0,0 l/m 0 min 0 min 0 W/m 3,2 km/h (1 Bft) 97,87 %
05.06.2019 23:22 21,1 C 19,4 C 18,9 C 81 % 1001,8 hPa 0,0 l/m 0 min 0 min 0 W/m 3,2 km/h (1 Bft) 95,74 %
05.06.2019 23:24 21,1 C 19,4 C 18,9 C 81 % 1001,9 hPa 0,0 l/m 0 min 0 min 0 W/m 3,2 km/h (1 Bft) 97,87 %
05.06.2019 23:26 21,0 C 19,4 C 18,9 C 81 % 1001,9 hPa 0,0 l/m 0 min 0 min 0 W/m 3,2 km/h (1 Bft) 95,74 %
05.06.2019 23:28 21,0 C 19,4 C 19,4 C 81 % 1001,9 hPa 0,0 l/m 0 min 0 min 0 W/m 6,4 km/h (2 Bft) 95,74 %
05.06.2019 23:30 20,9 C 19,4 C 18,9 C 81 % 1001,8 hPa 0,0 l/m 0 min 0 min 0 W/m 6,4 km/h (2 Bft) 93,48 %
05.06.2019 23:32 20,9 C 19,4 C 18,9 C 81 % 1001,8 hPa 0,0 l/m 0 min 0 min 0 W/m 3,2 km/h (1 Bft) 95,74 %
05.06.2019 23:34 20,9 C 19,4 C 18,9 C 81 % 1001,9 hPa 0,0 l/m 0 min 0 min 0 W/m 6,4 km/h (2 Bft) 95,74 %
05.06.2019 23:36 20,9 C 19,4 C 18,9 C 81 % 1001,9 hPa 0,0 l/m 0 min 0 min 0 W/m 3,2 km/h (1 Bft) 94,92 %
05.06.2019 23:38 20,8 C 19,4 C 18,9 C 81 % 1001,9 hPa 0,0 l/m 0 min 0 min 0 W/m 3,2 km/h (1 Bft) 94,29 %
05.06.2019 23:40 20,8 C 19,4 C 18,9 C 81 % 1001,9 hPa 0,0 l/m 0 min 0 min 0 W/m 3,2 km/h (1 Bft) 95,74 %
05.06.2019 23:42 20,8 C 18,9 C 18,9 C 81 % 1001,9 hPa 0,0 l/m 0 min 0 min 0 W/m 3,2 km/h (1 Bft) 93,48 %
05.06.2019 23:44 20,7 C 18,9 C 18,9 C 81 % 1001,8 hPa 0,0 l/m 0 min 0 min 0 W/m 6,4 km/h (2 Bft) 95,74 %
05.06.2019 23:46 20,7 C 18,9 C 18,9 C 81 % 1001,9 hPa 0,0 l/m 0 min 0 min 0 W/m 3,2 km/h (1 Bft) 97,87 %
05.06.2019 23:48 20,7 C 18,9 C 18,9 C 82 % 1001,9 hPa 0,0 l/m 0 min 0 min 0 W/m 3,2 km/h (1 Bft) 97,87 %
05.06.2019 23:50 20,7 C 18,9 C 18,9 C 82 % 1002,0 hPa 0,0 l/m 0 min 0 min 0 W/m 3,2 km/h (1 Bft) 97,87 %
05.06.2019 23:52 20,6 C 18,9 C 18,9 C 82 % 1002,2 hPa 0,0 l/m 0 min 0 min 0 W/m 6,4 km/h (2 Bft) 97,87 %
05.06.2019 23:54 20,6 C 18,9 C 19,4 C 82 % 1002,4 hPa 0,0 l/m 0 min 0 min 0 W/m 6,4 km/h (2 Bft) 97,83 %
05.06.2019 23:56 20,5 C 19,4 C 19,4 C 82 % 1002,6 hPa 0,0 l/m 0 min 0 min 0 W/m 9,7 km/h (2 Bft) 97,87 %
05.06.2019 23:58 20,5 C 19,4 C 19,4 C 82 % 1002,7 hPa 0,0 l/m 0 min 0 min 0 W/m 12,9 km/h (3 Bft) 95,74 %
_ Min-Zeit 06:32 05:22 05:28 15:52 22:56 - - - - 00:34 05:14
Minimum _ 17,4 C 15,6 C 15,6 C 56 % 1001,5 hPa - - - - 0,0 km/h (0 Bft) 89,36 %
_ Max-Zeit 17:34 13:28 12:02 07:24 10:46 00:00 11:20 05:22 13:36 09:38 00:00
Maximum _ 28,8 C 35,0 C 35,0 C 93 % 1009,1 hPa 0,0 l/m 4 min 2 min 1082 W/m 19,3 km/h
SO (3 Bft)
100,00 %
Durchschnitt _ 22,8 C 23,4 C 22,5 C 74 % 1006,4 hPa #0,0 l/m #8:34 h #12 min. 423 W/m 6,7 km/h (2 Bft) 97,60 %
© 2019 W. Hausmann